<?xml version="1.0" encoding="UTF-8" standalone="no" ?>
<gpx xmlns="http://www.topografix.com/GPX/1/1" xmlns:xsi="http://www.w3.org/2001/XMLSchema-instance" xsi:schemaLocation="http://www.topografix.com/GPX/1/1 http://www.topografix.com/GPX/1/1/gpx.xsd" version="1.1" creator="VisuGPX - https://www.visugpx.com">
  <metadata>
    <name>Aramits Ance</name>
    <desc><![CDATA[Début et fin de la rando sur du goudron, mais au milieu, un paysage superbe, avec de nombreuses fougeraies.]]></desc>
  </metadata>
  <trk>
    <name><![CDATA[Tracé actuel: 17 JUIN 2012 10:26]]></name>
    <trkseg>
      <trkpt lat="43.12274" lon="-0.72679">
        <ele>267.38</ele>
        <time>2012-06-17T08:26:20Z</time>
      </trkpt>
      <trkpt lat="43.12266" lon="-0.72671">
        <ele>278.92</ele>
        <time>2012-06-17T08:26:36Z</time>
      </trkpt>
      <trkpt lat="43.12259" lon="-0.72662">
        <ele>278.92</ele>
        <time>2012-06-17T08:26:48Z</time>
      </trkpt>
      <trkpt lat="43.12251" lon="-0.72653">
        <ele>279.4</ele>
        <time>2012-06-17T08:26:59Z</time>
      </trkpt>
      <trkpt lat="43.12244" lon="-0.72646">
        <ele>279.4</ele>
        <time>2012-06-17T08:27:08Z</time>
      </trkpt>
      <trkpt lat="43.12234" lon="-0.72655">
        <ele>279.4</ele>
        <time>2012-06-17T08:27:18Z</time>
      </trkpt>
      <trkpt lat="43.12227" lon="-0.7266">
        <ele>279.88</ele>
        <time>2012-06-17T08:27:29Z</time>
      </trkpt>
      <trkpt lat="43.12217" lon="-0.7266">
        <ele>280.84</ele>
        <time>2012-06-17T08:27:40Z</time>
      </trkpt>
      <trkpt lat="43.12207" lon="-0.72664">
        <ele>280.84</ele>
        <time>2012-06-17T08:27:50Z</time>
      </trkpt>
      <trkpt lat="43.12198" lon="-0.72662">
        <ele>281.32</ele>
        <time>2012-06-17T08:27:59Z</time>
      </trkpt>
      <trkpt lat="43.12189" lon="-0.72666">
        <ele>282.28</ele>
        <time>2012-06-17T08:28:10Z</time>
      </trkpt>
      <trkpt lat="43.12179" lon="-0.72674">
        <ele>282.28</ele>
        <time>2012-06-17T08:28:19Z</time>
      </trkpt>
      <trkpt lat="43.12174" lon="-0.72663">
        <ele>282.77</ele>
        <time>2012-06-17T08:28:29Z</time>
      </trkpt>
      <trkpt lat="43.12171" lon="-0.72644">
        <ele>283.25</ele>
        <time>2012-06-17T08:28:39Z</time>
      </trkpt>
      <trkpt lat="43.1217" lon="-0.72625">
        <ele>283.73</ele>
        <time>2012-06-17T08:28:48Z</time>
      </trkpt>
      <trkpt lat="43.12167" lon="-0.72612">
        <ele>283.73</ele>
        <time>2012-06-17T08:28:56Z</time>
      </trkpt>
      <trkpt lat="43.12163" lon="-0.72599">
        <ele>283.73</ele>
        <time>2012-06-17T08:29:04Z</time>
      </trkpt>
      <trkpt lat="43.12158" lon="-0.72587">
        <ele>283.73</ele>
        <time>2012-06-17T08:29:13Z</time>
      </trkpt>
      <trkpt lat="43.12153" lon="-0.72574">
        <ele>284.21</ele>
        <time>2012-06-17T08:29:23Z</time>
      </trkpt>
      <trkpt lat="43.12149" lon="-0.7256">
        <ele>284.21</ele>
        <time>2012-06-17T08:29:33Z</time>
      </trkpt>
      <trkpt lat="43.12142" lon="-0.72546">
        <ele>284.69</ele>
        <time>2012-06-17T08:29:42Z</time>
      </trkpt>
      <trkpt lat="43.12135" lon="-0.72533">
        <ele>284.69</ele>
        <time>2012-06-17T08:29:51Z</time>
      </trkpt>
      <trkpt lat="43.12132" lon="-0.7252">
        <ele>285.17</ele>
        <time>2012-06-17T08:30:00Z</time>
      </trkpt>
      <trkpt lat="43.12127" lon="-0.72505">
        <ele>286.13</ele>
        <time>2012-06-17T08:30:10Z</time>
      </trkpt>
      <trkpt lat="43.12122" lon="-0.72491">
        <ele>286.13</ele>
        <time>2012-06-17T08:30:19Z</time>
      </trkpt>
      <trkpt lat="43.12117" lon="-0.72479">
        <ele>286.61</ele>
        <time>2012-06-17T08:30:28Z</time>
      </trkpt>
      <trkpt lat="43.12113" lon="-0.72468">
        <ele>286.61</ele>
        <time>2012-06-17T08:30:37Z</time>
      </trkpt>
      <trkpt lat="43.12108" lon="-0.72456">
        <ele>286.61</ele>
        <time>2012-06-17T08:30:45Z</time>
      </trkpt>
      <trkpt lat="43.12103" lon="-0.72443">
        <ele>286.61</ele>
        <time>2012-06-17T08:30:54Z</time>
      </trkpt>
      <trkpt lat="43.12098" lon="-0.7243">
        <ele>286.61</ele>
        <time>2012-06-17T08:31:02Z</time>
      </trkpt>
      <trkpt lat="43.12093" lon="-0.72416">
        <ele>287.09</ele>
        <time>2012-06-17T08:31:10Z</time>
      </trkpt>
      <trkpt lat="43.12089" lon="-0.72404">
        <ele>287.09</ele>
        <time>2012-06-17T08:31:18Z</time>
      </trkpt>
      <trkpt lat="43.12085" lon="-0.72393">
        <ele>287.09</ele>
        <time>2012-06-17T08:31:26Z</time>
      </trkpt>
      <trkpt lat="43.12081" lon="-0.7238">
        <ele>286.61</ele>
        <time>2012-06-17T08:31:35Z</time>
      </trkpt>
      <trkpt lat="43.12075" lon="-0.72366">
        <ele>287.09</ele>
        <time>2012-06-17T08:31:43Z</time>
      </trkpt>
      <trkpt lat="43.12072" lon="-0.72354">
        <ele>287.09</ele>
        <time>2012-06-17T08:31:51Z</time>
      </trkpt>
      <trkpt lat="43.12067" lon="-0.72342">
        <ele>287.09</ele>
        <time>2012-06-17T08:31:59Z</time>
      </trkpt>
      <trkpt lat="43.12064" lon="-0.7233">
        <ele>287.09</ele>
        <time>2012-06-17T08:32:07Z</time>
      </trkpt>
      <trkpt lat="43.1206" lon="-0.72319">
        <ele>287.09</ele>
        <time>2012-06-17T08:32:15Z</time>
      </trkpt>
      <trkpt lat="43.12057" lon="-0.72306">
        <ele>287.57</ele>
        <time>2012-06-17T08:32:24Z</time>
      </trkpt>
      <trkpt lat="43.12053" lon="-0.72295">
        <ele>287.57</ele>
        <time>2012-06-17T08:32:32Z</time>
      </trkpt>
      <trkpt lat="43.12048" lon="-0.72282">
        <ele>287.57</ele>
        <time>2012-06-17T08:32:40Z</time>
      </trkpt>
      <trkpt lat="43.12046" lon="-0.72268">
        <ele>287.09</ele>
        <time>2012-06-17T08:32:49Z</time>
      </trkpt>
      <trkpt lat="43.12041" lon="-0.72255">
        <ele>287.09</ele>
        <time>2012-06-17T08:32:58Z</time>
      </trkpt>
      <trkpt lat="43.12035" lon="-0.72244">
        <ele>287.57</ele>
        <time>2012-06-17T08:33:06Z</time>
      </trkpt>
      <trkpt lat="43.12026" lon="-0.72237">
        <ele>287.57</ele>
        <time>2012-06-17T08:33:14Z</time>
      </trkpt>
      <trkpt lat="43.12017" lon="-0.72234">
        <ele>288.05</ele>
        <time>2012-06-17T08:33:25Z</time>
      </trkpt>
      <trkpt lat="43.12003" lon="-0.72233">
        <ele>288.53</ele>
        <time>2012-06-17T08:33:39Z</time>
      </trkpt>
      <trkpt lat="43.11995" lon="-0.72235">
        <ele>289.49</ele>
        <time>2012-06-17T08:33:51Z</time>
      </trkpt>
      <trkpt lat="43.11985" lon="-0.72236">
        <ele>290.94</ele>
        <time>2012-06-17T08:34:00Z</time>
      </trkpt>
      <trkpt lat="43.11976" lon="-0.72238">
        <ele>292.38</ele>
        <time>2012-06-17T08:34:10Z</time>
      </trkpt>
      <trkpt lat="43.11967" lon="-0.72242">
        <ele>293.34</ele>
        <time>2012-06-17T08:34:18Z</time>
      </trkpt>
      <trkpt lat="43.11958" lon="-0.72243">
        <ele>294.3</ele>
        <time>2012-06-17T08:34:28Z</time>
      </trkpt>
      <trkpt lat="43.11949" lon="-0.72243">
        <ele>295.74</ele>
        <time>2012-06-17T08:34:38Z</time>
      </trkpt>
      <trkpt lat="43.1194" lon="-0.72241">
        <ele>297.18</ele>
        <time>2012-06-17T08:34:50Z</time>
      </trkpt>
      <trkpt lat="43.11931" lon="-0.72234">
        <ele>298.15</ele>
        <time>2012-06-17T08:35:03Z</time>
      </trkpt>
      <trkpt lat="43.11922" lon="-0.7223">
        <ele>299.59</ele>
        <time>2012-06-17T08:35:15Z</time>
      </trkpt>
      <trkpt lat="43.11913" lon="-0.72226">
        <ele>301.51</ele>
        <time>2012-06-17T08:35:28Z</time>
      </trkpt>
      <trkpt lat="43.11903" lon="-0.72225">
        <ele>301.51</ele>
        <time>2012-06-17T08:35:38Z</time>
      </trkpt>
      <trkpt lat="43.11894" lon="-0.72224">
        <ele>302.95</ele>
        <time>2012-06-17T08:35:49Z</time>
      </trkpt>
      <trkpt lat="43.11886" lon="-0.7223">
        <ele>303.91</ele>
        <time>2012-06-17T08:35:59Z</time>
      </trkpt>
      <trkpt lat="43.11878" lon="-0.72237">
        <ele>305.36</ele>
        <time>2012-06-17T08:36:11Z</time>
      </trkpt>
      <trkpt lat="43.11869" lon="-0.7224">
        <ele>305.84</ele>
        <time>2012-06-17T08:36:21Z</time>
      </trkpt>
      <trkpt lat="43.1186" lon="-0.72243">
        <ele>306.8</ele>
        <time>2012-06-17T08:36:30Z</time>
      </trkpt>
      <trkpt lat="43.1185" lon="-0.72248">
        <ele>307.76</ele>
        <time>2012-06-17T08:36:40Z</time>
      </trkpt>
      <trkpt lat="43.11842" lon="-0.72251">
        <ele>308.24</ele>
        <time>2012-06-17T08:36:53Z</time>
      </trkpt>
      <trkpt lat="43.11834" lon="-0.72252">
        <ele>309.68</ele>
        <time>2012-06-17T08:40:02Z</time>
      </trkpt>
      <trkpt lat="43.11824" lon="-0.72253">
        <ele>309.68</ele>
        <time>2012-06-17T08:40:13Z</time>
      </trkpt>
      <trkpt lat="43.11815" lon="-0.72253">
        <ele>312.09</ele>
        <time>2012-06-17T08:40:26Z</time>
      </trkpt>
      <trkpt lat="43.11805" lon="-0.72254">
        <ele>312.57</ele>
        <time>2012-06-17T08:40:37Z</time>
      </trkpt>
      <trkpt lat="43.11796" lon="-0.72256">
        <ele>313.53</ele>
        <time>2012-06-17T08:40:46Z</time>
      </trkpt>
      <trkpt lat="43.11786" lon="-0.72257">
        <ele>314.01</ele>
        <time>2012-06-17T08:40:55Z</time>
      </trkpt>
      <trkpt lat="43.11776" lon="-0.72255">
        <ele>314.97</ele>
        <time>2012-06-17T08:41:04Z</time>
      </trkpt>
      <trkpt lat="43.11767" lon="-0.72248">
        <ele>315.93</ele>
        <time>2012-06-17T08:41:13Z</time>
      </trkpt>
      <trkpt lat="43.11761" lon="-0.72237">
        <ele>317.37</ele>
        <time>2012-06-17T08:41:23Z</time>
      </trkpt>
      <trkpt lat="43.11757" lon="-0.72223">
        <ele>318.33</ele>
        <time>2012-06-17T08:41:34Z</time>
      </trkpt>
      <trkpt lat="43.11754" lon="-0.72211">
        <ele>319.3</ele>
        <time>2012-06-17T08:41:45Z</time>
      </trkpt>
      <trkpt lat="43.11748" lon="-0.72201">
        <ele>320.26</ele>
        <time>2012-06-17T08:41:54Z</time>
      </trkpt>
      <trkpt lat="43.11742" lon="-0.7219">
        <ele>321.22</ele>
        <time>2012-06-17T08:42:04Z</time>
      </trkpt>
      <trkpt lat="43.11736" lon="-0.72179">
        <ele>322.18</ele>
        <time>2012-06-17T08:42:13Z</time>
      </trkpt>
      <trkpt lat="43.1173" lon="-0.72171">
        <ele>323.62</ele>
        <time>2012-06-17T08:42:23Z</time>
      </trkpt>
      <trkpt lat="43.11723" lon="-0.72162">
        <ele>324.1</ele>
        <time>2012-06-17T08:42:33Z</time>
      </trkpt>
      <trkpt lat="43.11715" lon="-0.72155">
        <ele>325.06</ele>
        <time>2012-06-17T08:42:43Z</time>
      </trkpt>
      <trkpt lat="43.11706" lon="-0.72149">
        <ele>326.5</ele>
        <time>2012-06-17T08:42:53Z</time>
      </trkpt>
      <trkpt lat="43.11698" lon="-0.72141">
        <ele>326.5</ele>
        <time>2012-06-17T08:43:03Z</time>
      </trkpt>
      <trkpt lat="43.1169" lon="-0.72134">
        <ele>327.47</ele>
        <time>2012-06-17T08:43:13Z</time>
      </trkpt>
      <trkpt lat="43.11682" lon="-0.72128">
        <ele>327.95</ele>
        <time>2012-06-17T08:43:22Z</time>
      </trkpt>
      <trkpt lat="43.11674" lon="-0.7212">
        <ele>328.43</ele>
        <time>2012-06-17T08:43:32Z</time>
      </trkpt>
      <trkpt lat="43.11667" lon="-0.72113">
        <ele>328.91</ele>
        <time>2012-06-17T08:43:41Z</time>
      </trkpt>
      <trkpt lat="43.11658" lon="-0.72105">
        <ele>329.87</ele>
        <time>2012-06-17T08:43:51Z</time>
      </trkpt>
      <trkpt lat="43.11649" lon="-0.72099">
        <ele>330.35</ele>
        <time>2012-06-17T08:44:01Z</time>
      </trkpt>
      <trkpt lat="43.11642" lon="-0.72092">
        <ele>330.83</ele>
        <time>2012-06-17T08:44:10Z</time>
      </trkpt>
      <trkpt lat="43.11634" lon="-0.72084">
        <ele>331.31</ele>
        <time>2012-06-17T08:44:19Z</time>
      </trkpt>
      <trkpt lat="43.11628" lon="-0.72075">
        <ele>332.27</ele>
        <time>2012-06-17T08:44:29Z</time>
      </trkpt>
      <trkpt lat="43.1162" lon="-0.72064">
        <ele>332.75</ele>
        <time>2012-06-17T08:44:41Z</time>
      </trkpt>
      <trkpt lat="43.11613" lon="-0.72053">
        <ele>333.71</ele>
        <time>2012-06-17T08:44:51Z</time>
      </trkpt>
      <trkpt lat="43.11607" lon="-0.72041">
        <ele>334.2</ele>
        <time>2012-06-17T08:45:00Z</time>
      </trkpt>
      <trkpt lat="43.11602" lon="-0.72027">
        <ele>334.2</ele>
        <time>2012-06-17T08:45:08Z</time>
      </trkpt>
      <trkpt lat="43.11597" lon="-0.72015">
        <ele>334.2</ele>
        <time>2012-06-17T08:45:17Z</time>
      </trkpt>
      <trkpt lat="43.11593" lon="-0.72003">
        <ele>335.16</ele>
        <time>2012-06-17T08:45:26Z</time>
      </trkpt>
      <trkpt lat="43.11589" lon="-0.71991">
        <ele>335.64</ele>
        <time>2012-06-17T08:45:36Z</time>
      </trkpt>
      <trkpt lat="43.11583" lon="-0.71979">
        <ele>336.6</ele>
        <time>2012-06-17T08:45:46Z</time>
      </trkpt>
      <trkpt lat="43.11578" lon="-0.71967">
        <ele>337.56</ele>
        <time>2012-06-17T08:45:56Z</time>
      </trkpt>
      <trkpt lat="43.11574" lon="-0.71953">
        <ele>338.52</ele>
        <time>2012-06-17T08:46:07Z</time>
      </trkpt>
      <trkpt lat="43.11571" lon="-0.71941">
        <ele>339.96</ele>
        <time>2012-06-17T08:46:17Z</time>
      </trkpt>
      <trkpt lat="43.11568" lon="-0.71929">
        <ele>340.92</ele>
        <time>2012-06-17T08:46:28Z</time>
      </trkpt>
      <trkpt lat="43.11564" lon="-0.71917">
        <ele>341.89</ele>
        <time>2012-06-17T08:46:37Z</time>
      </trkpt>
      <trkpt lat="43.11562" lon="-0.71905">
        <ele>343.33</ele>
        <time>2012-06-17T08:46:47Z</time>
      </trkpt>
      <trkpt lat="43.1156" lon="-0.71893">
        <ele>344.29</ele>
        <time>2012-06-17T08:46:56Z</time>
      </trkpt>
      <trkpt lat="43.11559" lon="-0.71881">
        <ele>345.73</ele>
        <time>2012-06-17T08:47:05Z</time>
      </trkpt>
      <trkpt lat="43.1156" lon="-0.71868">
        <ele>346.21</ele>
        <time>2012-06-17T08:47:16Z</time>
      </trkpt>
      <trkpt lat="43.11562" lon="-0.71856">
        <ele>348.13</ele>
        <time>2012-06-17T08:47:26Z</time>
      </trkpt>
      <trkpt lat="43.11565" lon="-0.71843">
        <ele>348.62</ele>
        <time>2012-06-17T08:47:36Z</time>
      </trkpt>
      <trkpt lat="43.11564" lon="-0.71829">
        <ele>350.06</ele>
        <time>2012-06-17T08:47:51Z</time>
      </trkpt>
      <trkpt lat="43.11563" lon="-0.71816">
        <ele>350.54</ele>
        <time>2012-06-17T08:48:01Z</time>
      </trkpt>
      <trkpt lat="43.11565" lon="-0.71803">
        <ele>351.98</ele>
        <time>2012-06-17T08:48:12Z</time>
      </trkpt>
      <trkpt lat="43.11564" lon="-0.71791">
        <ele>353.9</ele>
        <time>2012-06-17T08:48:26Z</time>
      </trkpt>
      <trkpt lat="43.11565" lon="-0.71777">
        <ele>355.83</ele>
        <time>2012-06-17T08:48:38Z</time>
      </trkpt>
      <trkpt lat="43.11566" lon="-0.71764">
        <ele>357.27</ele>
        <time>2012-06-17T08:48:50Z</time>
      </trkpt>
      <trkpt lat="43.11569" lon="-0.71752">
        <ele>358.71</ele>
        <time>2012-06-17T08:49:02Z</time>
      </trkpt>
      <trkpt lat="43.11573" lon="-0.71741">
        <ele>359.67</ele>
        <time>2012-06-17T08:49:13Z</time>
      </trkpt>
      <trkpt lat="43.11577" lon="-0.71729">
        <ele>361.11</ele>
        <time>2012-06-17T08:49:24Z</time>
      </trkpt>
      <trkpt lat="43.11582" lon="-0.71718">
        <ele>362.07</ele>
        <time>2012-06-17T08:49:35Z</time>
      </trkpt>
      <trkpt lat="43.11587" lon="-0.71707">
        <ele>363.52</ele>
        <time>2012-06-17T08:49:47Z</time>
      </trkpt>
      <trkpt lat="43.11591" lon="-0.71696">
        <ele>364.48</ele>
        <time>2012-06-17T08:50:01Z</time>
      </trkpt>
      <trkpt lat="43.11598" lon="-0.71688">
        <ele>365.44</ele>
        <time>2012-06-17T08:50:11Z</time>
      </trkpt>
      <trkpt lat="43.11605" lon="-0.71678">
        <ele>366.4</ele>
        <time>2012-06-17T08:50:21Z</time>
      </trkpt>
      <trkpt lat="43.11607" lon="-0.71665">
        <ele>366.88</ele>
        <time>2012-06-17T08:50:38Z</time>
      </trkpt>
      <trkpt lat="43.11607" lon="-0.71654">
        <ele>368.32</ele>
        <time>2012-06-17T08:51:00Z</time>
      </trkpt>
      <trkpt lat="43.11605" lon="-0.71642">
        <ele>370.24</ele>
        <time>2012-06-17T08:51:16Z</time>
      </trkpt>
      <trkpt lat="43.11602" lon="-0.71629">
        <ele>370.73</ele>
        <time>2012-06-17T08:51:25Z</time>
      </trkpt>
      <trkpt lat="43.11599" lon="-0.71628">
        <ele>371.21</ele>
        <time>2012-06-17T08:52:41Z</time>
      </trkpt>
      <trkpt lat="43.11596" lon="-0.71615">
        <ele>372.17</ele>
        <time>2012-06-17T08:52:50Z</time>
      </trkpt>
      <trkpt lat="43.11594" lon="-0.71601">
        <ele>373.61</ele>
        <time>2012-06-17T08:53:01Z</time>
      </trkpt>
      <trkpt lat="43.11591" lon="-0.71588">
        <ele>374.57</ele>
        <time>2012-06-17T08:53:13Z</time>
      </trkpt>
      <trkpt lat="43.1159" lon="-0.71576">
        <ele>376.01</ele>
        <time>2012-06-17T08:53:24Z</time>
      </trkpt>
      <trkpt lat="43.11592" lon="-0.71563">
        <ele>377.45</ele>
        <time>2012-06-17T08:53:34Z</time>
      </trkpt>
      <trkpt lat="43.11591" lon="-0.7155">
        <ele>378.9</ele>
        <time>2012-06-17T08:53:43Z</time>
      </trkpt>
      <trkpt lat="43.11587" lon="-0.71538">
        <ele>379.86</ele>
        <time>2012-06-17T08:53:52Z</time>
      </trkpt>
      <trkpt lat="43.1158" lon="-0.71536">
        <ele>380.34</ele>
        <time>2012-06-17T08:54:04Z</time>
      </trkpt>
      <trkpt lat="43.1157" lon="-0.71539">
        <ele>381.78</ele>
        <time>2012-06-17T08:54:14Z</time>
      </trkpt>
      <trkpt lat="43.1156" lon="-0.71543">
        <ele>383.7</ele>
        <time>2012-06-17T08:54:26Z</time>
      </trkpt>
      <trkpt lat="43.11551" lon="-0.71544">
        <ele>385.15</ele>
        <time>2012-06-17T08:54:37Z</time>
      </trkpt>
      <trkpt lat="43.11539" lon="-0.71547">
        <ele>387.55</ele>
        <time>2012-06-17T08:54:50Z</time>
      </trkpt>
      <trkpt lat="43.11528" lon="-0.7155">
        <ele>389.47</ele>
        <time>2012-06-17T08:55:04Z</time>
      </trkpt>
      <trkpt lat="43.11517" lon="-0.71553">
        <ele>390.91</ele>
        <time>2012-06-17T08:55:16Z</time>
      </trkpt>
      <trkpt lat="43.11507" lon="-0.71556">
        <ele>391.87</ele>
        <time>2012-06-17T08:55:26Z</time>
      </trkpt>
      <trkpt lat="43.11496" lon="-0.71557">
        <ele>392.84</ele>
        <time>2012-06-17T08:55:37Z</time>
      </trkpt>
      <trkpt lat="43.11485" lon="-0.7156">
        <ele>393.32</ele>
        <time>2012-06-17T08:55:47Z</time>
      </trkpt>
      <trkpt lat="43.11475" lon="-0.71561">
        <ele>394.76</ele>
        <time>2012-06-17T08:55:57Z</time>
      </trkpt>
      <trkpt lat="43.11465" lon="-0.71563">
        <ele>395.24</ele>
        <time>2012-06-17T08:56:07Z</time>
      </trkpt>
      <trkpt lat="43.11455" lon="-0.71564">
        <ele>395.72</ele>
        <time>2012-06-17T08:56:17Z</time>
      </trkpt>
      <trkpt lat="43.11445" lon="-0.71565">
        <ele>396.68</ele>
        <time>2012-06-17T08:56:27Z</time>
      </trkpt>
      <trkpt lat="43.11435" lon="-0.71565">
        <ele>397.16</ele>
        <time>2012-06-17T08:56:37Z</time>
      </trkpt>
      <trkpt lat="43.11426" lon="-0.71566">
        <ele>397.64</ele>
        <time>2012-06-17T08:56:47Z</time>
      </trkpt>
      <trkpt lat="43.11416" lon="-0.71567">
        <ele>398.6</ele>
        <time>2012-06-17T08:56:56Z</time>
      </trkpt>
      <trkpt lat="43.11407" lon="-0.71568">
        <ele>399.57</ele>
        <time>2012-06-17T08:57:04Z</time>
      </trkpt>
      <trkpt lat="43.11398" lon="-0.71567">
        <ele>399.57</ele>
        <time>2012-06-17T08:57:13Z</time>
      </trkpt>
      <trkpt lat="43.11389" lon="-0.71566">
        <ele>399.57</ele>
        <time>2012-06-17T08:57:22Z</time>
      </trkpt>
      <trkpt lat="43.11379" lon="-0.71559">
        <ele>400.05</ele>
        <time>2012-06-17T08:57:34Z</time>
      </trkpt>
      <trkpt lat="43.11379" lon="-0.71546">
        <ele>401.49</ele>
        <time>2012-06-17T08:57:45Z</time>
      </trkpt>
      <trkpt lat="43.11386" lon="-0.71539">
        <ele>402.93</ele>
        <time>2012-06-17T08:57:56Z</time>
      </trkpt>
      <trkpt lat="43.11393" lon="-0.71532">
        <ele>404.85</ele>
        <time>2012-06-17T08:58:07Z</time>
      </trkpt>
      <trkpt lat="43.11401" lon="-0.71527">
        <ele>405.33</ele>
        <time>2012-06-17T08:58:17Z</time>
      </trkpt>
      <trkpt lat="43.11409" lon="-0.7152">
        <ele>406.77</ele>
        <time>2012-06-17T08:58:27Z</time>
      </trkpt>
      <trkpt lat="43.11417" lon="-0.71511">
        <ele>407.74</ele>
        <time>2012-06-17T08:58:38Z</time>
      </trkpt>
      <trkpt lat="43.11421" lon="-0.71498">
        <ele>409.18</ele>
        <time>2012-06-17T08:58:57Z</time>
      </trkpt>
      <trkpt lat="43.1142" lon="-0.71486">
        <ele>411.1</ele>
        <time>2012-06-17T08:59:09Z</time>
      </trkpt>
      <trkpt lat="43.11419" lon="-0.71472">
        <ele>412.54</ele>
        <time>2012-06-17T08:59:21Z</time>
      </trkpt>
      <trkpt lat="43.11415" lon="-0.71458">
        <ele>414.47</ele>
        <time>2012-06-17T08:59:32Z</time>
      </trkpt>
      <trkpt lat="43.11409" lon="-0.71446">
        <ele>415.91</ele>
        <time>2012-06-17T08:59:43Z</time>
      </trkpt>
      <trkpt lat="43.11404" lon="-0.71436">
        <ele>417.35</ele>
        <time>2012-06-17T08:59:53Z</time>
      </trkpt>
      <trkpt lat="43.114" lon="-0.71425">
        <ele>418.31</ele>
        <time>2012-06-17T09:00:03Z</time>
      </trkpt>
      <trkpt lat="43.11395" lon="-0.71413">
        <ele>418.79</ele>
        <time>2012-06-17T09:00:13Z</time>
      </trkpt>
      <trkpt lat="43.1139" lon="-0.71402">
        <ele>418.31</ele>
        <time>2012-06-17T09:00:23Z</time>
      </trkpt>
      <trkpt lat="43.11387" lon="-0.71391">
        <ele>418.31</ele>
        <time>2012-06-17T09:00:44Z</time>
      </trkpt>
      <trkpt lat="43.11389" lon="-0.71381">
        <ele>417.83</ele>
        <time>2012-06-17T09:01:57Z</time>
      </trkpt>
      <trkpt lat="43.11395" lon="-0.71373">
        <ele>418.79</ele>
        <time>2012-06-17T09:07:49Z</time>
      </trkpt>
      <trkpt lat="43.11404" lon="-0.71365">
        <ele>418.79</ele>
        <time>2012-06-17T09:07:59Z</time>
      </trkpt>
      <trkpt lat="43.11413" lon="-0.71359">
        <ele>419.27</ele>
        <time>2012-06-17T09:08:09Z</time>
      </trkpt>
      <trkpt lat="43.11423" lon="-0.71355">
        <ele>419.75</ele>
        <time>2012-06-17T09:08:18Z</time>
      </trkpt>
      <trkpt lat="43.11434" lon="-0.71351">
        <ele>418.79</ele>
        <time>2012-06-17T09:08:28Z</time>
      </trkpt>
      <trkpt lat="43.11444" lon="-0.71347">
        <ele>419.27</ele>
        <time>2012-06-17T09:08:37Z</time>
      </trkpt>
      <trkpt lat="43.11456" lon="-0.71344">
        <ele>419.27</ele>
        <time>2012-06-17T09:08:47Z</time>
      </trkpt>
      <trkpt lat="43.1146" lon="-0.71336">
        <ele>418.79</ele>
        <time>2012-06-17T09:08:57Z</time>
      </trkpt>
      <trkpt lat="43.11452" lon="-0.71335">
        <ele>417.35</ele>
        <time>2012-06-17T09:09:10Z</time>
      </trkpt>
      <trkpt lat="43.11442" lon="-0.71336">
        <ele>416.87</ele>
        <time>2012-06-17T09:09:29Z</time>
      </trkpt>
      <trkpt lat="43.11432" lon="-0.71333">
        <ele>415.91</ele>
        <time>2012-06-17T09:09:39Z</time>
      </trkpt>
      <trkpt lat="43.11423" lon="-0.71332">
        <ele>414.95</ele>
        <time>2012-06-17T09:09:49Z</time>
      </trkpt>
      <trkpt lat="43.11413" lon="-0.71332">
        <ele>414.95</ele>
        <time>2012-06-17T09:09:58Z</time>
      </trkpt>
      <trkpt lat="43.11403" lon="-0.71333">
        <ele>414.47</ele>
        <time>2012-06-17T09:10:07Z</time>
      </trkpt>
      <trkpt lat="43.11393" lon="-0.71337">
        <ele>413.98</ele>
        <time>2012-06-17T09:10:16Z</time>
      </trkpt>
      <trkpt lat="43.11392" lon="-0.71329">
        <ele>413.5</ele>
        <time>2012-06-17T09:10:28Z</time>
      </trkpt>
      <trkpt lat="43.11401" lon="-0.71322">
        <ele>412.54</ele>
        <time>2012-06-17T09:10:38Z</time>
      </trkpt>
      <trkpt lat="43.1141" lon="-0.71319">
        <ele>411.1</ele>
        <time>2012-06-17T09:10:47Z</time>
      </trkpt>
      <trkpt lat="43.11419" lon="-0.71315">
        <ele>410.14</ele>
        <time>2012-06-17T09:10:56Z</time>
      </trkpt>
      <trkpt lat="43.11427" lon="-0.7131">
        <ele>409.66</ele>
        <time>2012-06-17T09:11:05Z</time>
      </trkpt>
      <trkpt lat="43.11436" lon="-0.71306">
        <ele>408.7</ele>
        <time>2012-06-17T09:11:15Z</time>
      </trkpt>
      <trkpt lat="43.11445" lon="-0.71302">
        <ele>406.77</ele>
        <time>2012-06-17T09:11:27Z</time>
      </trkpt>
      <trkpt lat="43.11454" lon="-0.71298">
        <ele>405.33</ele>
        <time>2012-06-17T09:11:39Z</time>
      </trkpt>
      <trkpt lat="43.11462" lon="-0.71294">
        <ele>403.41</ele>
        <time>2012-06-17T09:11:54Z</time>
      </trkpt>
      <trkpt lat="43.11471" lon="-0.7129">
        <ele>401.97</ele>
        <time>2012-06-17T09:12:07Z</time>
      </trkpt>
      <trkpt lat="43.11462" lon="-0.71292">
        <ele>402.93</ele>
        <time>2012-06-17T09:12:37Z</time>
      </trkpt>
      <trkpt lat="43.11454" lon="-0.71295">
        <ele>404.85</ele>
        <time>2012-06-17T09:12:52Z</time>
      </trkpt>
      <trkpt lat="43.11446" lon="-0.71302">
        <ele>405.81</ele>
        <time>2012-06-17T09:13:04Z</time>
      </trkpt>
      <trkpt lat="43.11438" lon="-0.71308">
        <ele>407.74</ele>
        <time>2012-06-17T09:13:18Z</time>
      </trkpt>
      <trkpt lat="43.11429" lon="-0.71313">
        <ele>409.18</ele>
        <time>2012-06-17T09:13:30Z</time>
      </trkpt>
      <trkpt lat="43.1142" lon="-0.71318">
        <ele>410.14</ele>
        <time>2012-06-17T09:13:41Z</time>
      </trkpt>
      <trkpt lat="43.11411" lon="-0.71323">
        <ele>411.1</ele>
        <time>2012-06-17T09:13:53Z</time>
      </trkpt>
      <trkpt lat="43.11401" lon="-0.71327">
        <ele>411.58</ele>
        <time>2012-06-17T09:14:04Z</time>
      </trkpt>
      <trkpt lat="43.11393" lon="-0.7133">
        <ele>412.54</ele>
        <time>2012-06-17T09:14:15Z</time>
      </trkpt>
      <trkpt lat="43.11387" lon="-0.71342">
        <ele>413.5</ele>
        <time>2012-06-17T09:14:26Z</time>
      </trkpt>
      <trkpt lat="43.11381" lon="-0.71353">
        <ele>413.5</ele>
        <time>2012-06-17T09:14:39Z</time>
      </trkpt>
      <trkpt lat="43.11378" lon="-0.71364">
        <ele>414.95</ele>
        <time>2012-06-17T09:14:58Z</time>
      </trkpt>
      <trkpt lat="43.11379" lon="-0.71378">
        <ele>416.39</ele>
        <time>2012-06-17T09:15:12Z</time>
      </trkpt>
      <trkpt lat="43.11381" lon="-0.7139">
        <ele>417.83</ele>
        <time>2012-06-17T09:15:28Z</time>
      </trkpt>
      <trkpt lat="43.11377" lon="-0.71397">
        <ele>418.31</ele>
        <time>2012-06-17T09:16:20Z</time>
      </trkpt>
      <trkpt lat="43.11374" lon="-0.71386">
        <ele>417.83</ele>
        <time>2012-06-17T09:16:31Z</time>
      </trkpt>
      <trkpt lat="43.11369" lon="-0.71374">
        <ele>416.39</ele>
        <time>2012-06-17T09:16:52Z</time>
      </trkpt>
      <trkpt lat="43.1136" lon="-0.71366">
        <ele>413.98</ele>
        <time>2012-06-17T09:17:03Z</time>
      </trkpt>
      <trkpt lat="43.11352" lon="-0.71361">
        <ele>412.06</ele>
        <time>2012-06-17T09:17:13Z</time>
      </trkpt>
      <trkpt lat="43.11344" lon="-0.71353">
        <ele>409.66</ele>
        <time>2012-06-17T09:17:23Z</time>
      </trkpt>
      <trkpt lat="43.11336" lon="-0.71347">
        <ele>407.74</ele>
        <time>2012-06-17T09:17:33Z</time>
      </trkpt>
      <trkpt lat="43.11327" lon="-0.71341">
        <ele>405.81</ele>
        <time>2012-06-17T09:17:43Z</time>
      </trkpt>
      <trkpt lat="43.1132" lon="-0.71334">
        <ele>403.41</ele>
        <time>2012-06-17T09:17:54Z</time>
      </trkpt>
      <trkpt lat="43.11311" lon="-0.71329">
        <ele>401.97</ele>
        <time>2012-06-17T09:18:05Z</time>
      </trkpt>
      <trkpt lat="43.11303" lon="-0.71327">
        <ele>400.05</ele>
        <time>2012-06-17T09:18:16Z</time>
      </trkpt>
      <trkpt lat="43.11303" lon="-0.71314">
        <ele>397.64</ele>
        <time>2012-06-17T09:18:30Z</time>
      </trkpt>
      <trkpt lat="43.11298" lon="-0.71303">
        <ele>396.68</ele>
        <time>2012-06-17T09:18:43Z</time>
      </trkpt>
      <trkpt lat="43.11296" lon="-0.71289">
        <ele>395.72</ele>
        <time>2012-06-17T09:18:55Z</time>
      </trkpt>
      <trkpt lat="43.11291" lon="-0.71278">
        <ele>395.24</ele>
        <time>2012-06-17T09:19:05Z</time>
      </trkpt>
      <trkpt lat="43.11287" lon="-0.71267">
        <ele>394.28</ele>
        <time>2012-06-17T09:19:14Z</time>
      </trkpt>
      <trkpt lat="43.11284" lon="-0.71255">
        <ele>394.28</ele>
        <time>2012-06-17T09:19:23Z</time>
      </trkpt>
      <trkpt lat="43.11278" lon="-0.71244">
        <ele>393.8</ele>
        <time>2012-06-17T09:19:32Z</time>
      </trkpt>
      <trkpt lat="43.11273" lon="-0.71233">
        <ele>392.84</ele>
        <time>2012-06-17T09:19:41Z</time>
      </trkpt>
      <trkpt lat="43.11268" lon="-0.71223">
        <ele>392.84</ele>
        <time>2012-06-17T09:19:51Z</time>
      </trkpt>
      <trkpt lat="43.11263" lon="-0.71212">
        <ele>392.84</ele>
        <time>2012-06-17T09:20:16Z</time>
      </trkpt>
      <trkpt lat="43.11257" lon="-0.71201">
        <ele>391.87</ele>
        <time>2012-06-17T09:20:24Z</time>
      </trkpt>
      <trkpt lat="43.11251" lon="-0.71191">
        <ele>391.39</ele>
        <time>2012-06-17T09:20:34Z</time>
      </trkpt>
      <trkpt lat="43.11243" lon="-0.71181">
        <ele>389.95</ele>
        <time>2012-06-17T09:20:44Z</time>
      </trkpt>
      <trkpt lat="43.11237" lon="-0.71169">
        <ele>390.43</ele>
        <time>2012-06-17T09:20:53Z</time>
      </trkpt>
      <trkpt lat="43.1123" lon="-0.7116">
        <ele>389.47</ele>
        <time>2012-06-17T09:21:03Z</time>
      </trkpt>
      <trkpt lat="43.11224" lon="-0.71151">
        <ele>388.99</ele>
        <time>2012-06-17T09:21:12Z</time>
      </trkpt>
      <trkpt lat="43.11216" lon="-0.71142">
        <ele>387.55</ele>
        <time>2012-06-17T09:21:21Z</time>
      </trkpt>
      <trkpt lat="43.11208" lon="-0.71136">
        <ele>387.07</ele>
        <time>2012-06-17T09:21:30Z</time>
      </trkpt>
      <trkpt lat="43.112" lon="-0.71129">
        <ele>386.59</ele>
        <time>2012-06-17T09:21:39Z</time>
      </trkpt>
      <trkpt lat="43.1119" lon="-0.71126">
        <ele>386.59</ele>
        <time>2012-06-17T09:21:48Z</time>
      </trkpt>
      <trkpt lat="43.11182" lon="-0.71122">
        <ele>385.63</ele>
        <time>2012-06-17T09:21:58Z</time>
      </trkpt>
      <trkpt lat="43.11173" lon="-0.71119">
        <ele>385.15</ele>
        <time>2012-06-17T09:22:08Z</time>
      </trkpt>
      <trkpt lat="43.11163" lon="-0.71116">
        <ele>384.18</ele>
        <time>2012-06-17T09:22:19Z</time>
      </trkpt>
      <trkpt lat="43.11154" lon="-0.71113">
        <ele>384.18</ele>
        <time>2012-06-17T09:22:29Z</time>
      </trkpt>
      <trkpt lat="43.11144" lon="-0.71111">
        <ele>383.7</ele>
        <time>2012-06-17T09:22:38Z</time>
      </trkpt>
      <trkpt lat="43.11134" lon="-0.71109">
        <ele>382.74</ele>
        <time>2012-06-17T09:22:47Z</time>
      </trkpt>
      <trkpt lat="43.11124" lon="-0.71107">
        <ele>382.74</ele>
        <time>2012-06-17T09:22:56Z</time>
      </trkpt>
      <trkpt lat="43.11115" lon="-0.71104">
        <ele>381.3</ele>
        <time>2012-06-17T09:23:06Z</time>
      </trkpt>
      <trkpt lat="43.11106" lon="-0.711">
        <ele>380.82</ele>
        <time>2012-06-17T09:23:15Z</time>
      </trkpt>
      <trkpt lat="43.11097" lon="-0.71095">
        <ele>380.34</ele>
        <time>2012-06-17T09:23:24Z</time>
      </trkpt>
      <trkpt lat="43.11087" lon="-0.71093">
        <ele>378.9</ele>
        <time>2012-06-17T09:23:34Z</time>
      </trkpt>
      <trkpt lat="43.11078" lon="-0.71089">
        <ele>377.94</ele>
        <time>2012-06-17T09:23:44Z</time>
      </trkpt>
      <trkpt lat="43.1107" lon="-0.71082">
        <ele>376.01</ele>
        <time>2012-06-17T09:23:54Z</time>
      </trkpt>
      <trkpt lat="43.11063" lon="-0.71069">
        <ele>375.05</ele>
        <time>2012-06-17T09:24:04Z</time>
      </trkpt>
      <trkpt lat="43.11056" lon="-0.71061">
        <ele>374.09</ele>
        <time>2012-06-17T09:24:13Z</time>
      </trkpt>
      <trkpt lat="43.11045" lon="-0.71057">
        <ele>374.57</ele>
        <time>2012-06-17T09:24:23Z</time>
      </trkpt>
      <trkpt lat="43.11034" lon="-0.71058">
        <ele>375.05</ele>
        <time>2012-06-17T09:24:33Z</time>
      </trkpt>
      <trkpt lat="43.11023" lon="-0.7106">
        <ele>375.53</ele>
        <time>2012-06-17T09:24:41Z</time>
      </trkpt>
      <trkpt lat="43.11012" lon="-0.71059">
        <ele>376.01</ele>
        <time>2012-06-17T09:24:50Z</time>
      </trkpt>
      <trkpt lat="43.11001" lon="-0.71057">
        <ele>376.97</ele>
        <time>2012-06-17T09:24:59Z</time>
      </trkpt>
      <trkpt lat="43.10991" lon="-0.71058">
        <ele>377.94</ele>
        <time>2012-06-17T09:25:08Z</time>
      </trkpt>
      <trkpt lat="43.10982" lon="-0.71061">
        <ele>378.9</ele>
        <time>2012-06-17T09:25:17Z</time>
      </trkpt>
      <trkpt lat="43.10973" lon="-0.71064">
        <ele>379.86</ele>
        <time>2012-06-17T09:25:27Z</time>
      </trkpt>
      <trkpt lat="43.10965" lon="-0.71068">
        <ele>380.34</ele>
        <time>2012-06-17T09:25:38Z</time>
      </trkpt>
      <trkpt lat="43.10957" lon="-0.71072">
        <ele>381.78</ele>
        <time>2012-06-17T09:25:49Z</time>
      </trkpt>
      <trkpt lat="43.10946" lon="-0.71076">
        <ele>382.26</ele>
        <time>2012-06-17T09:25:58Z</time>
      </trkpt>
      <trkpt lat="43.10937" lon="-0.7108">
        <ele>382.74</ele>
        <time>2012-06-17T09:26:08Z</time>
      </trkpt>
      <trkpt lat="43.10926" lon="-0.71084">
        <ele>383.7</ele>
        <time>2012-06-17T09:26:19Z</time>
      </trkpt>
      <trkpt lat="43.10916" lon="-0.71088">
        <ele>384.18</ele>
        <time>2012-06-17T09:26:29Z</time>
      </trkpt>
      <trkpt lat="43.10907" lon="-0.71088">
        <ele>384.66</ele>
        <time>2012-06-17T09:26:38Z</time>
      </trkpt>
      <trkpt lat="43.10899" lon="-0.71085">
        <ele>385.63</ele>
        <time>2012-06-17T09:26:48Z</time>
      </trkpt>
      <trkpt lat="43.10891" lon="-0.71079">
        <ele>386.59</ele>
        <time>2012-06-17T09:26:58Z</time>
      </trkpt>
      <trkpt lat="43.10882" lon="-0.71068">
        <ele>387.55</ele>
        <time>2012-06-17T09:27:08Z</time>
      </trkpt>
      <trkpt lat="43.10875" lon="-0.71059">
        <ele>387.55</ele>
        <time>2012-06-17T09:27:17Z</time>
      </trkpt>
      <trkpt lat="43.10869" lon="-0.71052">
        <ele>388.51</ele>
        <time>2012-06-17T09:27:26Z</time>
      </trkpt>
      <trkpt lat="43.10862" lon="-0.71043">
        <ele>389.47</ele>
        <time>2012-06-17T09:27:36Z</time>
      </trkpt>
      <trkpt lat="43.10856" lon="-0.71033">
        <ele>389.95</ele>
        <time>2012-06-17T09:27:45Z</time>
      </trkpt>
      <trkpt lat="43.10852" lon="-0.71019">
        <ele>388.51</ele>
        <time>2012-06-17T09:27:54Z</time>
      </trkpt>
      <trkpt lat="43.10849" lon="-0.71008">
        <ele>388.03</ele>
        <time>2012-06-17T09:28:04Z</time>
      </trkpt>
      <trkpt lat="43.10852" lon="-0.70995">
        <ele>386.59</ele>
        <time>2012-06-17T09:28:14Z</time>
      </trkpt>
      <trkpt lat="43.10857" lon="-0.70984">
        <ele>385.15</ele>
        <time>2012-06-17T09:28:24Z</time>
      </trkpt>
      <trkpt lat="43.10862" lon="-0.70973">
        <ele>383.22</ele>
        <time>2012-06-17T09:28:33Z</time>
      </trkpt>
      <trkpt lat="43.10865" lon="-0.70962">
        <ele>382.26</ele>
        <time>2012-06-17T09:28:42Z</time>
      </trkpt>
      <trkpt lat="43.10868" lon="-0.7095">
        <ele>381.3</ele>
        <time>2012-06-17T09:28:50Z</time>
      </trkpt>
      <trkpt lat="43.1087" lon="-0.70937">
        <ele>380.34</ele>
        <time>2012-06-17T09:28:58Z</time>
      </trkpt>
      <trkpt lat="43.10873" lon="-0.70924">
        <ele>378.9</ele>
        <time>2012-06-17T09:29:06Z</time>
      </trkpt>
      <trkpt lat="43.10873" lon="-0.70913">
        <ele>378.9</ele>
        <time>2012-06-17T09:29:14Z</time>
      </trkpt>
      <trkpt lat="43.10873" lon="-0.70899">
        <ele>378.42</ele>
        <time>2012-06-17T09:29:23Z</time>
      </trkpt>
      <trkpt lat="43.10871" lon="-0.70885">
        <ele>377.94</ele>
        <time>2012-06-17T09:29:32Z</time>
      </trkpt>
      <trkpt lat="43.10867" lon="-0.70872">
        <ele>376.97</ele>
        <time>2012-06-17T09:29:41Z</time>
      </trkpt>
      <trkpt lat="43.10859" lon="-0.7086">
        <ele>376.97</ele>
        <time>2012-06-17T09:29:50Z</time>
      </trkpt>
      <trkpt lat="43.10852" lon="-0.70849">
        <ele>377.94</ele>
        <time>2012-06-17T09:29:58Z</time>
      </trkpt>
      <trkpt lat="43.10847" lon="-0.70838">
        <ele>378.42</ele>
        <time>2012-06-17T09:30:07Z</time>
      </trkpt>
      <trkpt lat="43.10841" lon="-0.70829">
        <ele>378.9</ele>
        <time>2012-06-17T09:30:15Z</time>
      </trkpt>
      <trkpt lat="43.10836" lon="-0.70817">
        <ele>379.38</ele>
        <time>2012-06-17T09:30:24Z</time>
      </trkpt>
      <trkpt lat="43.10835" lon="-0.70805">
        <ele>381.3</ele>
        <time>2012-06-17T09:30:34Z</time>
      </trkpt>
      <trkpt lat="43.10832" lon="-0.70791">
        <ele>382.26</ele>
        <time>2012-06-17T09:30:44Z</time>
      </trkpt>
      <trkpt lat="43.10827" lon="-0.70779">
        <ele>384.18</ele>
        <time>2012-06-17T09:30:54Z</time>
      </trkpt>
      <trkpt lat="43.10822" lon="-0.70769">
        <ele>385.63</ele>
        <time>2012-06-17T09:31:06Z</time>
      </trkpt>
      <trkpt lat="43.10816" lon="-0.70759">
        <ele>387.07</ele>
        <time>2012-06-17T09:31:16Z</time>
      </trkpt>
      <trkpt lat="43.10815" lon="-0.70746">
        <ele>388.03</ele>
        <time>2012-06-17T09:31:26Z</time>
      </trkpt>
      <trkpt lat="43.10818" lon="-0.70733">
        <ele>389.47</ele>
        <time>2012-06-17T09:31:37Z</time>
      </trkpt>
      <trkpt lat="43.10823" lon="-0.70722">
        <ele>390.43</ele>
        <time>2012-06-17T09:31:48Z</time>
      </trkpt>
      <trkpt lat="43.1083" lon="-0.70712">
        <ele>391.39</ele>
        <time>2012-06-17T09:31:59Z</time>
      </trkpt>
      <trkpt lat="43.10836" lon="-0.70703">
        <ele>393.32</ele>
        <time>2012-06-17T09:32:10Z</time>
      </trkpt>
      <trkpt lat="43.10844" lon="-0.70697">
        <ele>393.8</ele>
        <time>2012-06-17T09:32:20Z</time>
      </trkpt>
      <trkpt lat="43.10852" lon="-0.70692">
        <ele>394.76</ele>
        <time>2012-06-17T09:32:30Z</time>
      </trkpt>
      <trkpt lat="43.10862" lon="-0.70689">
        <ele>395.24</ele>
        <time>2012-06-17T09:32:40Z</time>
      </trkpt>
      <trkpt lat="43.10871" lon="-0.70684">
        <ele>395.72</ele>
        <time>2012-06-17T09:32:50Z</time>
      </trkpt>
      <trkpt lat="43.10879" lon="-0.70676">
        <ele>396.68</ele>
        <time>2012-06-17T09:33:00Z</time>
      </trkpt>
      <trkpt lat="43.10879" lon="-0.70664">
        <ele>398.12</ele>
        <time>2012-06-17T09:33:10Z</time>
      </trkpt>
      <trkpt lat="43.10871" lon="-0.70658">
        <ele>400.05</ele>
        <time>2012-06-17T09:33:21Z</time>
      </trkpt>
      <trkpt lat="43.10861" lon="-0.70654">
        <ele>401.49</ele>
        <time>2012-06-17T09:33:32Z</time>
      </trkpt>
      <trkpt lat="43.10851" lon="-0.70651">
        <ele>402.45</ele>
        <time>2012-06-17T09:33:42Z</time>
      </trkpt>
      <trkpt lat="43.10842" lon="-0.70648">
        <ele>403.89</ele>
        <time>2012-06-17T09:33:52Z</time>
      </trkpt>
      <trkpt lat="43.10835" lon="-0.70642">
        <ele>404.85</ele>
        <time>2012-06-17T09:34:02Z</time>
      </trkpt>
      <trkpt lat="43.10828" lon="-0.70637">
        <ele>406.29</ele>
        <time>2012-06-17T09:34:12Z</time>
      </trkpt>
      <trkpt lat="43.1082" lon="-0.70629">
        <ele>407.26</ele>
        <time>2012-06-17T09:34:22Z</time>
      </trkpt>
      <trkpt lat="43.10813" lon="-0.7062">
        <ele>407.74</ele>
        <time>2012-06-17T09:34:31Z</time>
      </trkpt>
      <trkpt lat="43.10811" lon="-0.70609">
        <ele>408.7</ele>
        <time>2012-06-17T09:34:41Z</time>
      </trkpt>
      <trkpt lat="43.10814" lon="-0.70597">
        <ele>410.62</ele>
        <time>2012-06-17T09:34:52Z</time>
      </trkpt>
      <trkpt lat="43.10822" lon="-0.70588">
        <ele>412.06</ele>
        <time>2012-06-17T09:35:04Z</time>
      </trkpt>
      <trkpt lat="43.10826" lon="-0.70582">
        <ele>413.98</ele>
        <time>2012-06-17T09:42:45Z</time>
      </trkpt>
      <trkpt lat="43.10826" lon="-0.70569">
        <ele>414.47</ele>
        <time>2012-06-17T09:42:55Z</time>
      </trkpt>
      <trkpt lat="43.10823" lon="-0.70556">
        <ele>414.47</ele>
        <time>2012-06-17T09:43:05Z</time>
      </trkpt>
      <trkpt lat="43.1082" lon="-0.70543">
        <ele>413.98</ele>
        <time>2012-06-17T09:43:15Z</time>
      </trkpt>
      <trkpt lat="43.10813" lon="-0.70532">
        <ele>413.98</ele>
        <time>2012-06-17T09:43:25Z</time>
      </trkpt>
      <trkpt lat="43.10809" lon="-0.70524">
        <ele>414.47</ele>
        <time>2012-06-17T09:43:34Z</time>
      </trkpt>
      <trkpt lat="43.10802" lon="-0.70514">
        <ele>413.5</ele>
        <time>2012-06-17T09:43:43Z</time>
      </trkpt>
      <trkpt lat="43.10797" lon="-0.70503">
        <ele>413.5</ele>
        <time>2012-06-17T09:43:53Z</time>
      </trkpt>
      <trkpt lat="43.10791" lon="-0.70492">
        <ele>413.98</ele>
        <time>2012-06-17T09:44:03Z</time>
      </trkpt>
      <trkpt lat="43.10784" lon="-0.70478">
        <ele>413.02</ele>
        <time>2012-06-17T09:44:13Z</time>
      </trkpt>
      <trkpt lat="43.10781" lon="-0.70465">
        <ele>412.54</ele>
        <time>2012-06-17T09:44:23Z</time>
      </trkpt>
      <trkpt lat="43.10776" lon="-0.70452">
        <ele>411.58</ele>
        <time>2012-06-17T09:44:33Z</time>
      </trkpt>
      <trkpt lat="43.10769" lon="-0.7044">
        <ele>411.58</ele>
        <time>2012-06-17T09:44:42Z</time>
      </trkpt>
      <trkpt lat="43.10759" lon="-0.70436">
        <ele>412.06</ele>
        <time>2012-06-17T09:44:49Z</time>
      </trkpt>
      <trkpt lat="43.10747" lon="-0.70437">
        <ele>413.02</ele>
        <time>2012-06-17T09:44:59Z</time>
      </trkpt>
      <trkpt lat="43.10737" lon="-0.70438">
        <ele>413.5</ele>
        <time>2012-06-17T09:45:08Z</time>
      </trkpt>
      <trkpt lat="43.10727" lon="-0.70436">
        <ele>413.98</ele>
        <time>2012-06-17T09:45:16Z</time>
      </trkpt>
      <trkpt lat="43.10718" lon="-0.70431">
        <ele>414.47</ele>
        <time>2012-06-17T09:45:25Z</time>
      </trkpt>
      <trkpt lat="43.1071" lon="-0.70422">
        <ele>413.5</ele>
        <time>2012-06-17T09:45:35Z</time>
      </trkpt>
      <trkpt lat="43.10704" lon="-0.70413">
        <ele>413.02</ele>
        <time>2012-06-17T09:45:44Z</time>
      </trkpt>
      <trkpt lat="43.10699" lon="-0.70402">
        <ele>412.54</ele>
        <time>2012-06-17T09:45:52Z</time>
      </trkpt>
      <trkpt lat="43.10696" lon="-0.70392">
        <ele>412.06</ele>
        <time>2012-06-17T09:46:00Z</time>
      </trkpt>
      <trkpt lat="43.10692" lon="-0.70381">
        <ele>411.58</ele>
        <time>2012-06-17T09:46:08Z</time>
      </trkpt>
      <trkpt lat="43.10688" lon="-0.70369">
        <ele>411.1</ele>
        <time>2012-06-17T09:46:16Z</time>
      </trkpt>
      <trkpt lat="43.10684" lon="-0.70359">
        <ele>411.1</ele>
        <time>2012-06-17T09:46:24Z</time>
      </trkpt>
      <trkpt lat="43.10678" lon="-0.70346">
        <ele>410.62</ele>
        <time>2012-06-17T09:46:33Z</time>
      </trkpt>
      <trkpt lat="43.10673" lon="-0.70335">
        <ele>410.14</ele>
        <time>2012-06-17T09:46:42Z</time>
      </trkpt>
      <trkpt lat="43.10668" lon="-0.70324">
        <ele>410.14</ele>
        <time>2012-06-17T09:46:51Z</time>
      </trkpt>
      <trkpt lat="43.10662" lon="-0.70312">
        <ele>409.66</ele>
        <time>2012-06-17T09:47:01Z</time>
      </trkpt>
      <trkpt lat="43.10657" lon="-0.703">
        <ele>409.18</ele>
        <time>2012-06-17T09:47:09Z</time>
      </trkpt>
      <trkpt lat="43.10648" lon="-0.70289">
        <ele>409.18</ele>
        <time>2012-06-17T09:47:17Z</time>
      </trkpt>
      <trkpt lat="43.10636" lon="-0.70283">
        <ele>410.14</ele>
        <time>2012-06-17T09:47:26Z</time>
      </trkpt>
      <trkpt lat="43.10625" lon="-0.70288">
        <ele>411.58</ele>
        <time>2012-06-17T09:47:36Z</time>
      </trkpt>
      <trkpt lat="43.10617" lon="-0.70296">
        <ele>413.5</ele>
        <time>2012-06-17T09:47:46Z</time>
      </trkpt>
      <trkpt lat="43.1061" lon="-0.70306">
        <ele>414.47</ele>
        <time>2012-06-17T09:47:55Z</time>
      </trkpt>
      <trkpt lat="43.10602" lon="-0.7031">
        <ele>415.43</ele>
        <time>2012-06-17T09:48:05Z</time>
      </trkpt>
      <trkpt lat="43.10595" lon="-0.70304">
        <ele>416.39</ele>
        <time>2012-06-17T09:48:14Z</time>
      </trkpt>
      <trkpt lat="43.10589" lon="-0.70294">
        <ele>417.83</ele>
        <time>2012-06-17T09:48:25Z</time>
      </trkpt>
      <trkpt lat="43.10582" lon="-0.70284">
        <ele>418.79</ele>
        <time>2012-06-17T09:48:36Z</time>
      </trkpt>
      <trkpt lat="43.10576" lon="-0.70274">
        <ele>419.75</ele>
        <time>2012-06-17T09:48:46Z</time>
      </trkpt>
      <trkpt lat="43.10569" lon="-0.70263">
        <ele>420.23</ele>
        <time>2012-06-17T09:48:56Z</time>
      </trkpt>
      <trkpt lat="43.10561" lon="-0.70254">
        <ele>421.19</ele>
        <time>2012-06-17T09:49:06Z</time>
      </trkpt>
      <trkpt lat="43.10552" lon="-0.7025">
        <ele>422.16</ele>
        <time>2012-06-17T09:49:17Z</time>
      </trkpt>
      <trkpt lat="43.10542" lon="-0.70249">
        <ele>423.12</ele>
        <time>2012-06-17T09:49:27Z</time>
      </trkpt>
      <trkpt lat="43.10533" lon="-0.70244">
        <ele>424.08</ele>
        <time>2012-06-17T09:49:38Z</time>
      </trkpt>
      <trkpt lat="43.10527" lon="-0.70231">
        <ele>426</ele>
        <time>2012-06-17T09:49:49Z</time>
      </trkpt>
      <trkpt lat="43.10529" lon="-0.70219">
        <ele>426.96</ele>
        <time>2012-06-17T09:50:00Z</time>
      </trkpt>
      <trkpt lat="43.1053" lon="-0.70207">
        <ele>428.89</ele>
        <time>2012-06-17T09:50:11Z</time>
      </trkpt>
      <trkpt lat="43.10533" lon="-0.70195">
        <ele>430.33</ele>
        <time>2012-06-17T09:50:22Z</time>
      </trkpt>
      <trkpt lat="43.10532" lon="-0.70182">
        <ele>432.25</ele>
        <time>2012-06-17T09:50:34Z</time>
      </trkpt>
      <trkpt lat="43.10524" lon="-0.70172">
        <ele>433.21</ele>
        <time>2012-06-17T09:50:43Z</time>
      </trkpt>
      <trkpt lat="43.10517" lon="-0.70167">
        <ele>434.65</ele>
        <time>2012-06-17T09:50:52Z</time>
      </trkpt>
      <trkpt lat="43.10508" lon="-0.70163">
        <ele>436.1</ele>
        <time>2012-06-17T09:51:05Z</time>
      </trkpt>
      <trkpt lat="43.10501" lon="-0.70155">
        <ele>438.02</ele>
        <time>2012-06-17T09:51:16Z</time>
      </trkpt>
      <trkpt lat="43.10497" lon="-0.70143">
        <ele>438.5</ele>
        <time>2012-06-17T09:51:28Z</time>
      </trkpt>
      <trkpt lat="43.10492" lon="-0.70132">
        <ele>440.42</ele>
        <time>2012-06-17T09:51:39Z</time>
      </trkpt>
      <trkpt lat="43.10486" lon="-0.70122">
        <ele>441.38</ele>
        <time>2012-06-17T09:51:49Z</time>
      </trkpt>
      <trkpt lat="43.10475" lon="-0.70119">
        <ele>441.38</ele>
        <time>2012-06-17T09:51:59Z</time>
      </trkpt>
      <trkpt lat="43.10466" lon="-0.70133">
        <ele>439.94</ele>
        <time>2012-06-17T09:52:09Z</time>
      </trkpt>
      <trkpt lat="43.10461" lon="-0.70148">
        <ele>438.02</ele>
        <time>2012-06-17T09:52:19Z</time>
      </trkpt>
      <trkpt lat="43.10453" lon="-0.70157">
        <ele>436.58</ele>
        <time>2012-06-17T09:52:28Z</time>
      </trkpt>
      <trkpt lat="43.10445" lon="-0.70162">
        <ele>436.1</ele>
        <time>2012-06-17T09:52:37Z</time>
      </trkpt>
      <trkpt lat="43.10435" lon="-0.7017">
        <ele>435.13</ele>
        <time>2012-06-17T09:52:47Z</time>
      </trkpt>
      <trkpt lat="43.10428" lon="-0.70183">
        <ele>434.17</ele>
        <time>2012-06-17T09:52:57Z</time>
      </trkpt>
      <trkpt lat="43.10426" lon="-0.70203">
        <ele>434.65</ele>
        <time>2012-06-17T09:53:09Z</time>
      </trkpt>
      <trkpt lat="43.10424" lon="-0.70223">
        <ele>434.65</ele>
        <time>2012-06-17T09:53:21Z</time>
      </trkpt>
      <trkpt lat="43.10419" lon="-0.70239">
        <ele>435.13</ele>
        <time>2012-06-17T09:53:33Z</time>
      </trkpt>
      <trkpt lat="43.10412" lon="-0.70247">
        <ele>434.17</ele>
        <time>2012-06-17T09:53:43Z</time>
      </trkpt>
      <trkpt lat="43.10404" lon="-0.70253">
        <ele>432.73</ele>
        <time>2012-06-17T09:53:53Z</time>
      </trkpt>
      <trkpt lat="43.10395" lon="-0.70258">
        <ele>431.29</ele>
        <time>2012-06-17T09:54:03Z</time>
      </trkpt>
      <trkpt lat="43.1039" lon="-0.70269">
        <ele>429.37</ele>
        <time>2012-06-17T09:54:11Z</time>
      </trkpt>
      <trkpt lat="43.10384" lon="-0.70287">
        <ele>427.92</ele>
        <time>2012-06-17T09:54:20Z</time>
      </trkpt>
      <trkpt lat="43.10382" lon="-0.703">
        <ele>426.96</ele>
        <time>2012-06-17T09:54:27Z</time>
      </trkpt>
      <trkpt lat="43.10383" lon="-0.70314">
        <ele>426.48</ele>
        <time>2012-06-17T09:54:37Z</time>
      </trkpt>
      <trkpt lat="43.10386" lon="-0.70326">
        <ele>426.96</ele>
        <time>2012-06-17T09:54:45Z</time>
      </trkpt>
      <trkpt lat="43.10395" lon="-0.70339">
        <ele>427.92</ele>
        <time>2012-06-17T09:54:55Z</time>
      </trkpt>
      <trkpt lat="43.104" lon="-0.7035">
        <ele>428.4</ele>
        <time>2012-06-17T09:55:04Z</time>
      </trkpt>
      <trkpt lat="43.10407" lon="-0.70362">
        <ele>429.37</ele>
        <time>2012-06-17T09:55:15Z</time>
      </trkpt>
      <trkpt lat="43.10412" lon="-0.70372">
        <ele>430.33</ele>
        <time>2012-06-17T09:55:27Z</time>
      </trkpt>
      <trkpt lat="43.1041" lon="-0.70385">
        <ele>430.81</ele>
        <time>2012-06-17T09:55:39Z</time>
      </trkpt>
      <trkpt lat="43.10405" lon="-0.70397">
        <ele>431.29</ele>
        <time>2012-06-17T09:55:47Z</time>
      </trkpt>
      <trkpt lat="43.10394" lon="-0.70407">
        <ele>431.29</ele>
        <time>2012-06-17T09:55:57Z</time>
      </trkpt>
      <trkpt lat="43.10387" lon="-0.70418">
        <ele>431.29</ele>
        <time>2012-06-17T09:56:06Z</time>
      </trkpt>
      <trkpt lat="43.10381" lon="-0.70431">
        <ele>430.81</ele>
        <time>2012-06-17T09:56:15Z</time>
      </trkpt>
      <trkpt lat="43.10371" lon="-0.70441">
        <ele>430.33</ele>
        <time>2012-06-17T09:56:24Z</time>
      </trkpt>
      <trkpt lat="43.10362" lon="-0.70444">
        <ele>430.81</ele>
        <time>2012-06-17T09:56:32Z</time>
      </trkpt>
      <trkpt lat="43.10352" lon="-0.70439">
        <ele>430.33</ele>
        <time>2012-06-17T09:56:41Z</time>
      </trkpt>
      <trkpt lat="43.10342" lon="-0.70435">
        <ele>430.33</ele>
        <time>2012-06-17T09:56:49Z</time>
      </trkpt>
      <trkpt lat="43.10332" lon="-0.70432">
        <ele>430.33</ele>
        <time>2012-06-17T09:56:58Z</time>
      </trkpt>
      <trkpt lat="43.10322" lon="-0.7043">
        <ele>430.81</ele>
        <time>2012-06-17T09:57:07Z</time>
      </trkpt>
      <trkpt lat="43.10312" lon="-0.70427">
        <ele>431.29</ele>
        <time>2012-06-17T09:57:16Z</time>
      </trkpt>
      <trkpt lat="43.10301" lon="-0.70425">
        <ele>431.29</ele>
        <time>2012-06-17T09:57:24Z</time>
      </trkpt>
      <trkpt lat="43.10292" lon="-0.70425">
        <ele>431.77</ele>
        <time>2012-06-17T09:57:32Z</time>
      </trkpt>
      <trkpt lat="43.10282" lon="-0.70425">
        <ele>432.25</ele>
        <time>2012-06-17T09:57:40Z</time>
      </trkpt>
      <trkpt lat="43.10274" lon="-0.70427">
        <ele>432.73</ele>
        <time>2012-06-17T09:57:49Z</time>
      </trkpt>
      <trkpt lat="43.10264" lon="-0.70425">
        <ele>433.69</ele>
        <time>2012-06-17T09:57:59Z</time>
      </trkpt>
      <trkpt lat="43.10255" lon="-0.70421">
        <ele>434.17</ele>
        <time>2012-06-17T09:58:09Z</time>
      </trkpt>
      <trkpt lat="43.10244" lon="-0.70417">
        <ele>436.58</ele>
        <time>2012-06-17T09:58:23Z</time>
      </trkpt>
      <trkpt lat="43.10235" lon="-0.70412">
        <ele>438.02</ele>
        <time>2012-06-17T09:58:35Z</time>
      </trkpt>
      <trkpt lat="43.10226" lon="-0.70404">
        <ele>439.46</ele>
        <time>2012-06-17T09:58:48Z</time>
      </trkpt>
      <trkpt lat="43.10217" lon="-0.70399">
        <ele>441.38</ele>
        <time>2012-06-17T09:58:59Z</time>
      </trkpt>
      <trkpt lat="43.1021" lon="-0.70389">
        <ele>443.79</ele>
        <time>2012-06-17T09:59:11Z</time>
      </trkpt>
      <trkpt lat="43.10212" lon="-0.70379">
        <ele>445.71</ele>
        <time>2012-06-17T09:59:26Z</time>
      </trkpt>
      <trkpt lat="43.10224" lon="-0.70376">
        <ele>447.63</ele>
        <time>2012-06-17T09:59:39Z</time>
      </trkpt>
      <trkpt lat="43.10232" lon="-0.70368">
        <ele>448.59</ele>
        <time>2012-06-17T09:59:51Z</time>
      </trkpt>
      <trkpt lat="43.10241" lon="-0.70362">
        <ele>450.03</ele>
        <time>2012-06-17T10:00:02Z</time>
      </trkpt>
      <trkpt lat="43.10249" lon="-0.70352">
        <ele>451</ele>
        <time>2012-06-17T10:00:13Z</time>
      </trkpt>
      <trkpt lat="43.1025" lon="-0.70339">
        <ele>452.44</ele>
        <time>2012-06-17T10:00:25Z</time>
      </trkpt>
      <trkpt lat="43.10241" lon="-0.70334">
        <ele>454.84</ele>
        <time>2012-06-17T10:00:40Z</time>
      </trkpt>
      <trkpt lat="43.10232" lon="-0.70331">
        <ele>456.28</ele>
        <time>2012-06-17T10:00:54Z</time>
      </trkpt>
      <trkpt lat="43.10223" lon="-0.70326">
        <ele>459.17</ele>
        <time>2012-06-17T10:01:15Z</time>
      </trkpt>
      <trkpt lat="43.10214" lon="-0.70322">
        <ele>460.13</ele>
        <time>2012-06-17T10:01:25Z</time>
      </trkpt>
      <trkpt lat="43.10206" lon="-0.70316">
        <ele>462.05</ele>
        <time>2012-06-17T10:01:40Z</time>
      </trkpt>
      <trkpt lat="43.10196" lon="-0.70311">
        <ele>463.97</ele>
        <time>2012-06-17T10:01:58Z</time>
      </trkpt>
      <trkpt lat="43.10188" lon="-0.70306">
        <ele>466.38</ele>
        <time>2012-06-17T10:02:14Z</time>
      </trkpt>
      <trkpt lat="43.10181" lon="-0.70297">
        <ele>468.78</ele>
        <time>2012-06-17T10:02:30Z</time>
      </trkpt>
      <trkpt lat="43.10176" lon="-0.70287">
        <ele>470.22</ele>
        <time>2012-06-17T10:02:41Z</time>
      </trkpt>
      <trkpt lat="43.10172" lon="-0.70276">
        <ele>472.63</ele>
        <time>2012-06-17T10:02:59Z</time>
      </trkpt>
      <trkpt lat="43.10166" lon="-0.70267">
        <ele>473.59</ele>
        <time>2012-06-17T10:03:09Z</time>
      </trkpt>
      <trkpt lat="43.10166" lon="-0.70257">
        <ele>475.03</ele>
        <time>2012-06-17T10:03:24Z</time>
      </trkpt>
      <trkpt lat="43.10162" lon="-0.70245">
        <ele>475.99</ele>
        <time>2012-06-17T10:03:39Z</time>
      </trkpt>
      <trkpt lat="43.10168" lon="-0.70236">
        <ele>477.91</ele>
        <time>2012-06-17T10:03:53Z</time>
      </trkpt>
      <trkpt lat="43.10177" lon="-0.7023">
        <ele>479.84</ele>
        <time>2012-06-17T10:04:06Z</time>
      </trkpt>
      <trkpt lat="43.10184" lon="-0.70222">
        <ele>481.28</ele>
        <time>2012-06-17T10:04:18Z</time>
      </trkpt>
      <trkpt lat="43.10191" lon="-0.70213">
        <ele>482.72</ele>
        <time>2012-06-17T10:04:31Z</time>
      </trkpt>
      <trkpt lat="43.10196" lon="-0.70201">
        <ele>484.64</ele>
        <time>2012-06-17T10:04:44Z</time>
      </trkpt>
      <trkpt lat="43.10202" lon="-0.70191">
        <ele>485.6</ele>
        <time>2012-06-17T10:04:56Z</time>
      </trkpt>
      <trkpt lat="43.10208" lon="-0.7018">
        <ele>487.05</ele>
        <time>2012-06-17T10:05:09Z</time>
      </trkpt>
      <trkpt lat="43.10212" lon="-0.70168">
        <ele>488.97</ele>
        <time>2012-06-17T10:05:22Z</time>
      </trkpt>
      <trkpt lat="43.10218" lon="-0.70158">
        <ele>490.89</ele>
        <time>2012-06-17T10:05:37Z</time>
      </trkpt>
      <trkpt lat="43.10225" lon="-0.70148">
        <ele>492.81</ele>
        <time>2012-06-17T10:05:52Z</time>
      </trkpt>
      <trkpt lat="43.10232" lon="-0.70136">
        <ele>494.26</ele>
        <time>2012-06-17T10:06:07Z</time>
      </trkpt>
      <trkpt lat="43.1024" lon="-0.70128">
        <ele>496.18</ele>
        <time>2012-06-17T10:06:23Z</time>
      </trkpt>
      <trkpt lat="43.10245" lon="-0.70119">
        <ele>497.62</ele>
        <time>2012-06-17T10:06:39Z</time>
      </trkpt>
      <trkpt lat="43.10251" lon="-0.7011">
        <ele>499.54</ele>
        <time>2012-06-17T10:06:57Z</time>
      </trkpt>
      <trkpt lat="43.1026" lon="-0.70102">
        <ele>501.95</ele>
        <time>2012-06-17T10:07:11Z</time>
      </trkpt>
      <trkpt lat="43.10268" lon="-0.70092">
        <ele>503.87</ele>
        <time>2012-06-17T10:07:26Z</time>
      </trkpt>
      <trkpt lat="43.10277" lon="-0.70084">
        <ele>506.27</ele>
        <time>2012-06-17T10:07:43Z</time>
      </trkpt>
      <trkpt lat="43.10284" lon="-0.70076">
        <ele>508.19</ele>
        <time>2012-06-17T10:07:59Z</time>
      </trkpt>
      <trkpt lat="43.10292" lon="-0.70067">
        <ele>510.12</ele>
        <time>2012-06-17T10:08:14Z</time>
      </trkpt>
      <trkpt lat="43.10299" lon="-0.70057">
        <ele>511.08</ele>
        <time>2012-06-17T10:08:28Z</time>
      </trkpt>
      <trkpt lat="43.10305" lon="-0.70046">
        <ele>512.52</ele>
        <time>2012-06-17T10:08:41Z</time>
      </trkpt>
      <trkpt lat="43.1031" lon="-0.70034">
        <ele>513.96</ele>
        <time>2012-06-17T10:08:54Z</time>
      </trkpt>
      <trkpt lat="43.10314" lon="-0.70022">
        <ele>514.92</ele>
        <time>2012-06-17T10:09:07Z</time>
      </trkpt>
      <trkpt lat="43.10322" lon="-0.70013">
        <ele>515.88</ele>
        <time>2012-06-17T10:09:19Z</time>
      </trkpt>
      <trkpt lat="43.10329" lon="-0.70003">
        <ele>516.85</ele>
        <time>2012-06-17T10:09:31Z</time>
      </trkpt>
      <trkpt lat="43.10334" lon="-0.69994">
        <ele>518.29</ele>
        <time>2012-06-17T10:09:42Z</time>
      </trkpt>
      <trkpt lat="43.10341" lon="-0.69984">
        <ele>518.77</ele>
        <time>2012-06-17T10:09:53Z</time>
      </trkpt>
      <trkpt lat="43.10347" lon="-0.69974">
        <ele>520.21</ele>
        <time>2012-06-17T10:10:05Z</time>
      </trkpt>
      <trkpt lat="43.10352" lon="-0.69963">
        <ele>521.17</ele>
        <time>2012-06-17T10:10:17Z</time>
      </trkpt>
      <trkpt lat="43.10358" lon="-0.69953">
        <ele>522.61</ele>
        <time>2012-06-17T10:10:29Z</time>
      </trkpt>
      <trkpt lat="43.10364" lon="-0.69943">
        <ele>524.54</ele>
        <time>2012-06-17T10:10:42Z</time>
      </trkpt>
      <trkpt lat="43.10373" lon="-0.69936">
        <ele>525.5</ele>
        <time>2012-06-17T10:10:55Z</time>
      </trkpt>
      <trkpt lat="43.10381" lon="-0.69929">
        <ele>527.42</ele>
        <time>2012-06-17T10:11:08Z</time>
      </trkpt>
      <trkpt lat="43.10392" lon="-0.69924">
        <ele>528.86</ele>
        <time>2012-06-17T10:11:22Z</time>
      </trkpt>
      <trkpt lat="43.104" lon="-0.69915">
        <ele>529.34</ele>
        <time>2012-06-17T10:11:34Z</time>
      </trkpt>
      <trkpt lat="43.10403" lon="-0.69903">
        <ele>531.27</ele>
        <time>2012-06-17T10:11:45Z</time>
      </trkpt>
      <trkpt lat="43.10403" lon="-0.6989">
        <ele>532.71</ele>
        <time>2012-06-17T10:11:59Z</time>
      </trkpt>
      <trkpt lat="43.10404" lon="-0.69878">
        <ele>534.15</ele>
        <time>2012-06-17T10:12:13Z</time>
      </trkpt>
      <trkpt lat="43.10406" lon="-0.69865">
        <ele>536.07</ele>
        <time>2012-06-17T10:12:27Z</time>
      </trkpt>
      <trkpt lat="43.10407" lon="-0.69852">
        <ele>537.03</ele>
        <time>2012-06-17T10:12:40Z</time>
      </trkpt>
      <trkpt lat="43.10411" lon="-0.6984">
        <ele>538.48</ele>
        <time>2012-06-17T10:12:52Z</time>
      </trkpt>
      <trkpt lat="43.10418" lon="-0.6983">
        <ele>539.44</ele>
        <time>2012-06-17T10:13:05Z</time>
      </trkpt>
      <trkpt lat="43.10426" lon="-0.69824">
        <ele>540.4</ele>
        <time>2012-06-17T10:13:17Z</time>
      </trkpt>
      <trkpt lat="43.10436" lon="-0.69821">
        <ele>541.84</ele>
        <time>2012-06-17T10:13:30Z</time>
      </trkpt>
      <trkpt lat="43.10445" lon="-0.69817">
        <ele>542.32</ele>
        <time>2012-06-17T10:13:41Z</time>
      </trkpt>
      <trkpt lat="43.10453" lon="-0.69814">
        <ele>544.24</ele>
        <time>2012-06-17T10:13:53Z</time>
      </trkpt>
      <trkpt lat="43.10464" lon="-0.69811">
        <ele>545.69</ele>
        <time>2012-06-17T10:14:06Z</time>
      </trkpt>
      <trkpt lat="43.10473" lon="-0.69809">
        <ele>547.61</ele>
        <time>2012-06-17T10:14:22Z</time>
      </trkpt>
      <trkpt lat="43.10482" lon="-0.69806">
        <ele>549.53</ele>
        <time>2012-06-17T10:14:37Z</time>
      </trkpt>
      <trkpt lat="43.1049" lon="-0.69802">
        <ele>550.97</ele>
        <time>2012-06-17T10:14:53Z</time>
      </trkpt>
      <trkpt lat="43.10493" lon="-0.69801">
        <ele>553.38</ele>
        <time>2012-06-17T10:19:57Z</time>
      </trkpt>
      <trkpt lat="43.10503" lon="-0.69793">
        <ele>554.82</ele>
        <time>2012-06-17T10:20:10Z</time>
      </trkpt>
      <trkpt lat="43.1051" lon="-0.69784">
        <ele>555.78</ele>
        <time>2012-06-17T10:20:22Z</time>
      </trkpt>
      <trkpt lat="43.10517" lon="-0.69787">
        <ele>557.22</ele>
        <time>2012-06-17T10:20:35Z</time>
      </trkpt>
      <trkpt lat="43.10519" lon="-0.69802">
        <ele>559.14</ele>
        <time>2012-06-17T10:20:48Z</time>
      </trkpt>
      <trkpt lat="43.10525" lon="-0.69813">
        <ele>559.62</ele>
        <time>2012-06-17T10:20:59Z</time>
      </trkpt>
      <trkpt lat="43.10535" lon="-0.69814">
        <ele>560.11</ele>
        <time>2012-06-17T10:21:11Z</time>
      </trkpt>
      <trkpt lat="43.1054" lon="-0.69802">
        <ele>562.03</ele>
        <time>2012-06-17T10:21:24Z</time>
      </trkpt>
      <trkpt lat="43.10541" lon="-0.69788">
        <ele>562.99</ele>
        <time>2012-06-17T10:21:36Z</time>
      </trkpt>
      <trkpt lat="43.10544" lon="-0.69775">
        <ele>563.95</ele>
        <time>2012-06-17T10:21:48Z</time>
      </trkpt>
      <trkpt lat="43.10549" lon="-0.69764">
        <ele>564.91</ele>
        <time>2012-06-17T10:21:59Z</time>
      </trkpt>
      <trkpt lat="43.10556" lon="-0.69755">
        <ele>566.35</ele>
        <time>2012-06-17T10:22:12Z</time>
      </trkpt>
      <trkpt lat="43.10563" lon="-0.69747">
        <ele>567.8</ele>
        <time>2012-06-17T10:22:27Z</time>
      </trkpt>
      <trkpt lat="43.10572" lon="-0.6975">
        <ele>569.24</ele>
        <time>2012-06-17T10:22:41Z</time>
      </trkpt>
      <trkpt lat="43.10577" lon="-0.69762">
        <ele>571.16</ele>
        <time>2012-06-17T10:22:56Z</time>
      </trkpt>
      <trkpt lat="43.10583" lon="-0.69772">
        <ele>572.6</ele>
        <time>2012-06-17T10:23:08Z</time>
      </trkpt>
      <trkpt lat="43.10593" lon="-0.69779">
        <ele>574.04</ele>
        <time>2012-06-17T10:23:19Z</time>
      </trkpt>
      <trkpt lat="43.10603" lon="-0.69777">
        <ele>574.53</ele>
        <time>2012-06-17T10:23:30Z</time>
      </trkpt>
      <trkpt lat="43.10612" lon="-0.69772">
        <ele>575.97</ele>
        <time>2012-06-17T10:23:42Z</time>
      </trkpt>
      <trkpt lat="43.10623" lon="-0.69766">
        <ele>576.45</ele>
        <time>2012-06-17T10:23:55Z</time>
      </trkpt>
      <trkpt lat="43.10634" lon="-0.69757">
        <ele>577.89</ele>
        <time>2012-06-17T10:24:09Z</time>
      </trkpt>
      <trkpt lat="43.10643" lon="-0.69749">
        <ele>579.33</ele>
        <time>2012-06-17T10:24:22Z</time>
      </trkpt>
      <trkpt lat="43.10653" lon="-0.69741">
        <ele>579.81</ele>
        <time>2012-06-17T10:24:35Z</time>
      </trkpt>
      <trkpt lat="43.10661" lon="-0.69733">
        <ele>582.7</ele>
        <time>2012-06-17T10:24:49Z</time>
      </trkpt>
      <trkpt lat="43.1067" lon="-0.69726">
        <ele>584.14</ele>
        <time>2012-06-17T10:25:03Z</time>
      </trkpt>
      <trkpt lat="43.10678" lon="-0.69718">
        <ele>586.06</ele>
        <time>2012-06-17T10:25:18Z</time>
      </trkpt>
      <trkpt lat="43.10687" lon="-0.6971">
        <ele>587.5</ele>
        <time>2012-06-17T10:25:33Z</time>
      </trkpt>
      <trkpt lat="43.10695" lon="-0.69702">
        <ele>589.43</ele>
        <time>2012-06-17T10:25:47Z</time>
      </trkpt>
      <trkpt lat="43.10705" lon="-0.69696">
        <ele>590.39</ele>
        <time>2012-06-17T10:26:01Z</time>
      </trkpt>
      <trkpt lat="43.10714" lon="-0.69688">
        <ele>591.83</ele>
        <time>2012-06-17T10:26:15Z</time>
      </trkpt>
      <trkpt lat="43.10723" lon="-0.69682">
        <ele>591.83</ele>
        <time>2012-06-17T10:26:25Z</time>
      </trkpt>
      <trkpt lat="43.10731" lon="-0.69674">
        <ele>592.79</ele>
        <time>2012-06-17T10:26:36Z</time>
      </trkpt>
      <trkpt lat="43.10739" lon="-0.69667">
        <ele>593.27</ele>
        <time>2012-06-17T10:26:46Z</time>
      </trkpt>
      <trkpt lat="43.10747" lon="-0.69659">
        <ele>593.75</ele>
        <time>2012-06-17T10:26:57Z</time>
      </trkpt>
      <trkpt lat="43.10756" lon="-0.69651">
        <ele>594.23</ele>
        <time>2012-06-17T10:27:08Z</time>
      </trkpt>
      <trkpt lat="43.10765" lon="-0.69645">
        <ele>595.19</ele>
        <time>2012-06-17T10:27:18Z</time>
      </trkpt>
      <trkpt lat="43.10773" lon="-0.6964">
        <ele>595.19</ele>
        <time>2012-06-17T10:27:28Z</time>
      </trkpt>
      <trkpt lat="43.10782" lon="-0.69638">
        <ele>596.15</ele>
        <time>2012-06-17T10:27:40Z</time>
      </trkpt>
      <trkpt lat="43.10789" lon="-0.69642">
        <ele>596.64</ele>
        <time>2012-06-17T10:29:14Z</time>
      </trkpt>
      <trkpt lat="43.1078" lon="-0.69636">
        <ele>596.64</ele>
        <time>2012-06-17T10:30:01Z</time>
      </trkpt>
      <trkpt lat="43.10772" lon="-0.69637">
        <ele>595.67</ele>
        <time>2012-06-17T10:30:15Z</time>
      </trkpt>
      <trkpt lat="43.10763" lon="-0.69643">
        <ele>595.19</ele>
        <time>2012-06-17T10:30:26Z</time>
      </trkpt>
      <trkpt lat="43.10755" lon="-0.69649">
        <ele>594.71</ele>
        <time>2012-06-17T10:30:37Z</time>
      </trkpt>
      <trkpt lat="43.10746" lon="-0.69656">
        <ele>594.23</ele>
        <time>2012-06-17T10:30:48Z</time>
      </trkpt>
      <trkpt lat="43.1074" lon="-0.69663">
        <ele>593.75</ele>
        <time>2012-06-17T10:30:58Z</time>
      </trkpt>
      <trkpt lat="43.10732" lon="-0.69671">
        <ele>593.27</ele>
        <time>2012-06-17T10:31:08Z</time>
      </trkpt>
      <trkpt lat="43.10725" lon="-0.69677">
        <ele>592.79</ele>
        <time>2012-06-17T10:31:20Z</time>
      </trkpt>
      <trkpt lat="43.10717" lon="-0.69685">
        <ele>592.31</ele>
        <time>2012-06-17T10:31:33Z</time>
      </trkpt>
      <trkpt lat="43.10709" lon="-0.69689">
        <ele>593.27</ele>
        <time>2012-06-17T10:34:45Z</time>
      </trkpt>
      <trkpt lat="43.10705" lon="-0.69682">
        <ele>593.27</ele>
        <time>2012-06-17T10:35:11Z</time>
      </trkpt>
      <trkpt lat="43.10703" lon="-0.69669">
        <ele>593.27</ele>
        <time>2012-06-17T10:35:21Z</time>
      </trkpt>
      <trkpt lat="43.10702" lon="-0.69656">
        <ele>592.79</ele>
        <time>2012-06-17T10:35:30Z</time>
      </trkpt>
      <trkpt lat="43.10703" lon="-0.69643">
        <ele>592.31</ele>
        <time>2012-06-17T10:35:39Z</time>
      </trkpt>
      <trkpt lat="43.10705" lon="-0.6963">
        <ele>590.87</ele>
        <time>2012-06-17T10:35:48Z</time>
      </trkpt>
      <trkpt lat="43.10707" lon="-0.69617">
        <ele>589.91</ele>
        <time>2012-06-17T10:35:57Z</time>
      </trkpt>
      <trkpt lat="43.10709" lon="-0.69604">
        <ele>588.95</ele>
        <time>2012-06-17T10:36:06Z</time>
      </trkpt>
      <trkpt lat="43.10709" lon="-0.69592">
        <ele>588.46</ele>
        <time>2012-06-17T10:36:16Z</time>
      </trkpt>
      <trkpt lat="43.10708" lon="-0.69581">
        <ele>583.66</ele>
        <time>2012-06-17T10:39:26Z</time>
      </trkpt>
      <trkpt lat="43.10713" lon="-0.69577">
        <ele>584.62</ele>
        <time>2012-06-17T10:45:25Z</time>
      </trkpt>
      <trkpt lat="43.10722" lon="-0.69576">
        <ele>584.62</ele>
        <time>2012-06-17T10:45:37Z</time>
      </trkpt>
      <trkpt lat="43.10732" lon="-0.69575">
        <ele>586.06</ele>
        <time>2012-06-17T10:45:51Z</time>
      </trkpt>
      <trkpt lat="43.10742" lon="-0.69579">
        <ele>587.02</ele>
        <time>2012-06-17T10:46:07Z</time>
      </trkpt>
      <trkpt lat="43.1075" lon="-0.69586">
        <ele>587.5</ele>
        <time>2012-06-17T10:46:20Z</time>
      </trkpt>
      <trkpt lat="43.1076" lon="-0.69591">
        <ele>588.46</ele>
        <time>2012-06-17T10:46:34Z</time>
      </trkpt>
      <trkpt lat="43.10769" lon="-0.69595">
        <ele>588.95</ele>
        <time>2012-06-17T10:46:47Z</time>
      </trkpt>
      <trkpt lat="43.1078" lon="-0.696">
        <ele>590.87</ele>
        <time>2012-06-17T10:47:12Z</time>
      </trkpt>
      <trkpt lat="43.10789" lon="-0.69604">
        <ele>592.31</ele>
        <time>2012-06-17T10:47:27Z</time>
      </trkpt>
      <trkpt lat="43.10798" lon="-0.69607">
        <ele>592.79</ele>
        <time>2012-06-17T10:47:41Z</time>
      </trkpt>
      <trkpt lat="43.10808" lon="-0.6961">
        <ele>592.79</ele>
        <time>2012-06-17T10:47:53Z</time>
      </trkpt>
      <trkpt lat="43.10819" lon="-0.69613">
        <ele>593.27</ele>
        <time>2012-06-17T10:48:03Z</time>
      </trkpt>
      <trkpt lat="43.10828" lon="-0.69616">
        <ele>593.27</ele>
        <time>2012-06-17T10:48:15Z</time>
      </trkpt>
      <trkpt lat="43.10838" lon="-0.69619">
        <ele>594.23</ele>
        <time>2012-06-17T10:48:27Z</time>
      </trkpt>
      <trkpt lat="43.10848" lon="-0.69623">
        <ele>593.75</ele>
        <time>2012-06-17T10:48:40Z</time>
      </trkpt>
      <trkpt lat="43.10858" lon="-0.69622">
        <ele>593.75</ele>
        <time>2012-06-17T10:48:53Z</time>
      </trkpt>
      <trkpt lat="43.10867" lon="-0.69625">
        <ele>593.27</ele>
        <time>2012-06-17T10:49:04Z</time>
      </trkpt>
      <trkpt lat="43.10877" lon="-0.69624">
        <ele>592.31</ele>
        <time>2012-06-17T10:49:15Z</time>
      </trkpt>
      <trkpt lat="43.10887" lon="-0.69626">
        <ele>591.83</ele>
        <time>2012-06-17T10:49:27Z</time>
      </trkpt>
      <trkpt lat="43.10897" lon="-0.69627">
        <ele>590.87</ele>
        <time>2012-06-17T10:49:36Z</time>
      </trkpt>
      <trkpt lat="43.10907" lon="-0.69627">
        <ele>590.87</ele>
        <time>2012-06-17T10:49:47Z</time>
      </trkpt>
      <trkpt lat="43.10915" lon="-0.69627">
        <ele>590.87</ele>
        <time>2012-06-17T10:49:57Z</time>
      </trkpt>
      <trkpt lat="43.10923" lon="-0.69629">
        <ele>590.87</ele>
        <time>2012-06-17T10:50:09Z</time>
      </trkpt>
      <trkpt lat="43.10928" lon="-0.69624">
        <ele>589.43</ele>
        <time>2012-06-17T10:51:45Z</time>
      </trkpt>
      <trkpt lat="43.10925" lon="-0.69616">
        <ele>583.66</ele>
        <time>2012-06-17T10:52:53Z</time>
      </trkpt>
      <trkpt lat="43.10921" lon="-0.69605">
        <ele>580.29</ele>
        <time>2012-06-17T10:53:12Z</time>
      </trkpt>
      <trkpt lat="43.10919" lon="-0.69595">
        <ele>576.45</ele>
        <time>2012-06-17T10:53:45Z</time>
      </trkpt>
      <trkpt lat="43.10915" lon="-0.69586">
        <ele>574.04</ele>
        <time>2012-06-17T10:54:22Z</time>
      </trkpt>
      <trkpt lat="43.10907" lon="-0.69579">
        <ele>571.16</ele>
        <time>2012-06-17T10:54:37Z</time>
      </trkpt>
      <trkpt lat="43.10904" lon="-0.69567">
        <ele>568.28</ele>
        <time>2012-06-17T10:54:59Z</time>
      </trkpt>
      <trkpt lat="43.10901" lon="-0.69556">
        <ele>564.91</ele>
        <time>2012-06-17T10:55:11Z</time>
      </trkpt>
      <trkpt lat="43.10896" lon="-0.69545">
        <ele>562.99</ele>
        <time>2012-06-17T10:55:27Z</time>
      </trkpt>
      <trkpt lat="43.10891" lon="-0.69534">
        <ele>560.59</ele>
        <time>2012-06-17T10:55:36Z</time>
      </trkpt>
      <trkpt lat="43.10886" lon="-0.69522">
        <ele>558.18</ele>
        <time>2012-06-17T10:55:46Z</time>
      </trkpt>
      <trkpt lat="43.10883" lon="-0.6951">
        <ele>554.82</ele>
        <time>2012-06-17T10:56:08Z</time>
      </trkpt>
      <trkpt lat="43.1088" lon="-0.69499">
        <ele>553.38</ele>
        <time>2012-06-17T10:56:32Z</time>
      </trkpt>
      <trkpt lat="43.10877" lon="-0.69485">
        <ele>551.45</ele>
        <time>2012-06-17T10:56:42Z</time>
      </trkpt>
      <trkpt lat="43.10877" lon="-0.69473">
        <ele>550.97</ele>
        <time>2012-06-17T10:56:54Z</time>
      </trkpt>
      <trkpt lat="43.10879" lon="-0.69464">
        <ele>550.49</ele>
        <time>2012-06-17T10:57:09Z</time>
      </trkpt>
      <trkpt lat="43.10877" lon="-0.69462">
        <ele>549.53</ele>
        <time>2012-06-17T11:08:15Z</time>
      </trkpt>
      <trkpt lat="43.10877" lon="-0.6946">
        <ele>550.49</ele>
        <time>2012-06-17T11:11:11Z</time>
      </trkpt>
      <trkpt lat="43.10874" lon="-0.69467">
        <ele>552.9</ele>
        <time>2012-06-17T11:25:48Z</time>
      </trkpt>
      <trkpt lat="43.10874" lon="-0.69482">
        <ele>553.86</ele>
        <time>2012-06-17T11:26:22Z</time>
      </trkpt>
      <trkpt lat="43.10876" lon="-0.69494">
        <ele>554.34</ele>
        <time>2012-06-17T11:26:43Z</time>
      </trkpt>
      <trkpt lat="43.10879" lon="-0.695">
        <ele>553.86</ele>
        <time>2012-06-17T11:27:46Z</time>
      </trkpt>
      <trkpt lat="43.10881" lon="-0.69512">
        <ele>555.78</ele>
        <time>2012-06-17T11:28:01Z</time>
      </trkpt>
      <trkpt lat="43.10882" lon="-0.69507">
        <ele>555.3</ele>
        <time>2012-06-17T11:45:49Z</time>
      </trkpt>
      <trkpt lat="43.10878" lon="-0.69495">
        <ele>553.38</ele>
        <time>2012-06-17T11:46:00Z</time>
      </trkpt>
      <trkpt lat="43.10877" lon="-0.69482">
        <ele>552.41</ele>
        <time>2012-06-17T11:46:09Z</time>
      </trkpt>
      <trkpt lat="43.10883" lon="-0.69489">
        <ele>553.38</ele>
        <time>2012-06-17T11:46:26Z</time>
      </trkpt>
      <trkpt lat="43.10879" lon="-0.69488">
        <ele>552.9</ele>
        <time>2012-06-17T11:46:49Z</time>
      </trkpt>
      <trkpt lat="43.10882" lon="-0.69492">
        <ele>553.38</ele>
        <time>2012-06-17T11:47:44Z</time>
      </trkpt>
      <trkpt lat="43.10881" lon="-0.6949">
        <ele>553.38</ele>
        <time>2012-06-17T11:48:16Z</time>
      </trkpt>
      <trkpt lat="43.10878" lon="-0.69478">
        <ele>552.41</ele>
        <time>2012-06-17T11:48:26Z</time>
      </trkpt>
      <trkpt lat="43.10876" lon="-0.69495">
        <ele>553.38</ele>
        <time>2012-06-17T11:48:38Z</time>
      </trkpt>
      <trkpt lat="43.10878" lon="-0.69509">
        <ele>554.82</ele>
        <time>2012-06-17T11:48:53Z</time>
      </trkpt>
      <trkpt lat="43.10883" lon="-0.69516">
        <ele>557.22</ele>
        <time>2012-06-17T11:50:52Z</time>
      </trkpt>
      <trkpt lat="43.10876" lon="-0.69526">
        <ele>559.14</ele>
        <time>2012-06-17T11:51:04Z</time>
      </trkpt>
      <trkpt lat="43.10873" lon="-0.6953">
        <ele>559.62</ele>
        <time>2012-06-17T11:52:31Z</time>
      </trkpt>
      <trkpt lat="43.10881" lon="-0.69521">
        <ele>556.74</ele>
        <time>2012-06-17T11:52:46Z</time>
      </trkpt>
      <trkpt lat="43.10884" lon="-0.69509">
        <ele>553.86</ele>
        <time>2012-06-17T11:53:51Z</time>
      </trkpt>
      <trkpt lat="43.1088" lon="-0.69497">
        <ele>552.9</ele>
        <time>2012-06-17T11:54:24Z</time>
      </trkpt>
      <trkpt lat="43.10877" lon="-0.69485">
        <ele>551.45</ele>
        <time>2012-06-17T11:55:17Z</time>
      </trkpt>
      <trkpt lat="43.10876" lon="-0.69471">
        <ele>550.97</ele>
        <time>2012-06-17T11:55:29Z</time>
      </trkpt>
      <trkpt lat="43.10875" lon="-0.69458">
        <ele>550.49</ele>
        <time>2012-06-17T11:55:39Z</time>
      </trkpt>
      <trkpt lat="43.10875" lon="-0.69446">
        <ele>550.49</ele>
        <time>2012-06-17T11:55:48Z</time>
      </trkpt>
      <trkpt lat="43.10874" lon="-0.69433">
        <ele>550.49</ele>
        <time>2012-06-17T11:55:57Z</time>
      </trkpt>
      <trkpt lat="43.10875" lon="-0.6942">
        <ele>550.49</ele>
        <time>2012-06-17T11:56:08Z</time>
      </trkpt>
      <trkpt lat="43.10873" lon="-0.69407">
        <ele>551.45</ele>
        <time>2012-06-17T11:56:20Z</time>
      </trkpt>
      <trkpt lat="43.10872" lon="-0.69393">
        <ele>552.41</ele>
        <time>2012-06-17T11:56:31Z</time>
      </trkpt>
      <trkpt lat="43.10871" lon="-0.69379">
        <ele>553.38</ele>
        <time>2012-06-17T11:56:41Z</time>
      </trkpt>
      <trkpt lat="43.10871" lon="-0.69365">
        <ele>554.34</ele>
        <time>2012-06-17T11:56:52Z</time>
      </trkpt>
      <trkpt lat="43.1087" lon="-0.69352">
        <ele>554.82</ele>
        <time>2012-06-17T11:57:02Z</time>
      </trkpt>
      <trkpt lat="43.10869" lon="-0.69339">
        <ele>555.3</ele>
        <time>2012-06-17T11:57:11Z</time>
      </trkpt>
      <trkpt lat="43.10867" lon="-0.69326">
        <ele>554.82</ele>
        <time>2012-06-17T11:57:20Z</time>
      </trkpt>
      <trkpt lat="43.10865" lon="-0.69314">
        <ele>554.82</ele>
        <time>2012-06-17T11:57:29Z</time>
      </trkpt>
      <trkpt lat="43.10865" lon="-0.693">
        <ele>553.86</ele>
        <time>2012-06-17T11:57:38Z</time>
      </trkpt>
      <trkpt lat="43.10865" lon="-0.69288">
        <ele>552.9</ele>
        <time>2012-06-17T11:57:47Z</time>
      </trkpt>
      <trkpt lat="43.10864" lon="-0.69274">
        <ele>551.93</ele>
        <time>2012-06-17T11:57:56Z</time>
      </trkpt>
      <trkpt lat="43.10864" lon="-0.69262">
        <ele>550.97</ele>
        <time>2012-06-17T11:58:05Z</time>
      </trkpt>
      <trkpt lat="43.10863" lon="-0.69249">
        <ele>550.01</ele>
        <time>2012-06-17T11:58:14Z</time>
      </trkpt>
      <trkpt lat="43.10862" lon="-0.69237">
        <ele>549.53</ele>
        <time>2012-06-17T11:58:25Z</time>
      </trkpt>
      <trkpt lat="43.10859" lon="-0.69225">
        <ele>549.05</ele>
        <time>2012-06-17T11:58:34Z</time>
      </trkpt>
      <trkpt lat="43.10857" lon="-0.69212">
        <ele>549.05</ele>
        <time>2012-06-17T11:58:45Z</time>
      </trkpt>
      <trkpt lat="43.10857" lon="-0.69199">
        <ele>549.05</ele>
        <time>2012-06-17T11:58:54Z</time>
      </trkpt>
      <trkpt lat="43.10856" lon="-0.69184">
        <ele>548.57</ele>
        <time>2012-06-17T11:59:03Z</time>
      </trkpt>
      <trkpt lat="43.10859" lon="-0.69172">
        <ele>549.05</ele>
        <time>2012-06-17T11:59:12Z</time>
      </trkpt>
      <trkpt lat="43.10859" lon="-0.6916">
        <ele>549.05</ele>
        <time>2012-06-17T11:59:22Z</time>
      </trkpt>
      <trkpt lat="43.10861" lon="-0.69147">
        <ele>549.53</ele>
        <time>2012-06-17T11:59:32Z</time>
      </trkpt>
      <trkpt lat="43.10864" lon="-0.69133">
        <ele>550.49</ele>
        <time>2012-06-17T11:59:44Z</time>
      </trkpt>
      <trkpt lat="43.10866" lon="-0.69121">
        <ele>550.97</ele>
        <time>2012-06-17T11:59:54Z</time>
      </trkpt>
      <trkpt lat="43.10869" lon="-0.69108">
        <ele>551.93</ele>
        <time>2012-06-17T12:00:04Z</time>
      </trkpt>
      <trkpt lat="43.10871" lon="-0.69095">
        <ele>551.93</ele>
        <time>2012-06-17T12:00:14Z</time>
      </trkpt>
      <trkpt lat="43.10873" lon="-0.69082">
        <ele>551.45</ele>
        <time>2012-06-17T12:00:24Z</time>
      </trkpt>
      <trkpt lat="43.10875" lon="-0.69068">
        <ele>550.97</ele>
        <time>2012-06-17T12:00:33Z</time>
      </trkpt>
      <trkpt lat="43.10873" lon="-0.69055">
        <ele>550.49</ele>
        <time>2012-06-17T12:00:42Z</time>
      </trkpt>
      <trkpt lat="43.10873" lon="-0.69041">
        <ele>550.49</ele>
        <time>2012-06-17T12:00:52Z</time>
      </trkpt>
      <trkpt lat="43.10871" lon="-0.69028">
        <ele>550.01</ele>
        <time>2012-06-17T12:01:01Z</time>
      </trkpt>
      <trkpt lat="43.1087" lon="-0.69015">
        <ele>550.49</ele>
        <time>2012-06-17T12:01:10Z</time>
      </trkpt>
      <trkpt lat="43.10869" lon="-0.69002">
        <ele>550.49</ele>
        <time>2012-06-17T12:01:19Z</time>
      </trkpt>
      <trkpt lat="43.10869" lon="-0.68989">
        <ele>550.97</ele>
        <time>2012-06-17T12:01:28Z</time>
      </trkpt>
      <trkpt lat="43.10871" lon="-0.68975">
        <ele>551.93</ele>
        <time>2012-06-17T12:01:38Z</time>
      </trkpt>
      <trkpt lat="43.10873" lon="-0.68963">
        <ele>552.41</ele>
        <time>2012-06-17T12:01:47Z</time>
      </trkpt>
      <trkpt lat="43.10876" lon="-0.6895">
        <ele>552.9</ele>
        <time>2012-06-17T12:01:57Z</time>
      </trkpt>
      <trkpt lat="43.10877" lon="-0.68938">
        <ele>553.38</ele>
        <time>2012-06-17T12:02:06Z</time>
      </trkpt>
      <trkpt lat="43.1088" lon="-0.68925">
        <ele>553.86</ele>
        <time>2012-06-17T12:02:15Z</time>
      </trkpt>
      <trkpt lat="43.10883" lon="-0.68913">
        <ele>553.86</ele>
        <time>2012-06-17T12:02:24Z</time>
      </trkpt>
      <trkpt lat="43.10886" lon="-0.689">
        <ele>553.86</ele>
        <time>2012-06-17T12:02:33Z</time>
      </trkpt>
      <trkpt lat="43.10886" lon="-0.68888">
        <ele>554.34</ele>
        <time>2012-06-17T12:02:43Z</time>
      </trkpt>
      <trkpt lat="43.10882" lon="-0.68876">
        <ele>553.86</ele>
        <time>2012-06-17T12:02:52Z</time>
      </trkpt>
      <trkpt lat="43.10877" lon="-0.68864">
        <ele>552.9</ele>
        <time>2012-06-17T12:03:02Z</time>
      </trkpt>
      <trkpt lat="43.10873" lon="-0.68851">
        <ele>552.41</ele>
        <time>2012-06-17T12:03:12Z</time>
      </trkpt>
      <trkpt lat="43.1087" lon="-0.68839">
        <ele>551.93</ele>
        <time>2012-06-17T12:03:21Z</time>
      </trkpt>
      <trkpt lat="43.10866" lon="-0.68825">
        <ele>550.97</ele>
        <time>2012-06-17T12:03:31Z</time>
      </trkpt>
      <trkpt lat="43.10862" lon="-0.68812">
        <ele>550.01</ele>
        <time>2012-06-17T12:03:41Z</time>
      </trkpt>
      <trkpt lat="43.10859" lon="-0.68799">
        <ele>549.53</ele>
        <time>2012-06-17T12:03:51Z</time>
      </trkpt>
      <trkpt lat="43.10857" lon="-0.68786">
        <ele>548.57</ele>
        <time>2012-06-17T12:04:01Z</time>
      </trkpt>
      <trkpt lat="43.10856" lon="-0.68771">
        <ele>548.57</ele>
        <time>2012-06-17T12:04:10Z</time>
      </trkpt>
      <trkpt lat="43.10856" lon="-0.68759">
        <ele>548.09</ele>
        <time>2012-06-17T12:04:18Z</time>
      </trkpt>
      <trkpt lat="43.10858" lon="-0.68746">
        <ele>547.61</ele>
        <time>2012-06-17T12:04:27Z</time>
      </trkpt>
      <trkpt lat="43.10861" lon="-0.68734">
        <ele>547.13</ele>
        <time>2012-06-17T12:04:36Z</time>
      </trkpt>
      <trkpt lat="43.10865" lon="-0.68721">
        <ele>546.65</ele>
        <time>2012-06-17T12:04:45Z</time>
      </trkpt>
      <trkpt lat="43.10869" lon="-0.68708">
        <ele>545.69</ele>
        <time>2012-06-17T12:04:54Z</time>
      </trkpt>
      <trkpt lat="43.10873" lon="-0.68694">
        <ele>545.2</ele>
        <time>2012-06-17T12:05:04Z</time>
      </trkpt>
      <trkpt lat="43.10878" lon="-0.68681">
        <ele>545.2</ele>
        <time>2012-06-17T12:05:13Z</time>
      </trkpt>
      <trkpt lat="43.10884" lon="-0.6867">
        <ele>545.2</ele>
        <time>2012-06-17T12:05:22Z</time>
      </trkpt>
      <trkpt lat="43.10889" lon="-0.68659">
        <ele>545.2</ele>
        <time>2012-06-17T12:05:31Z</time>
      </trkpt>
      <trkpt lat="43.10895" lon="-0.68649">
        <ele>545.2</ele>
        <time>2012-06-17T12:05:40Z</time>
      </trkpt>
      <trkpt lat="43.10901" lon="-0.6864">
        <ele>546.17</ele>
        <time>2012-06-17T12:05:49Z</time>
      </trkpt>
      <trkpt lat="43.10909" lon="-0.6863">
        <ele>546.65</ele>
        <time>2012-06-17T12:05:58Z</time>
      </trkpt>
      <trkpt lat="43.10915" lon="-0.6862">
        <ele>546.65</ele>
        <time>2012-06-17T12:06:07Z</time>
      </trkpt>
      <trkpt lat="43.1092" lon="-0.68609">
        <ele>547.13</ele>
        <time>2012-06-17T12:06:16Z</time>
      </trkpt>
      <trkpt lat="43.10924" lon="-0.68598">
        <ele>548.09</ele>
        <time>2012-06-17T12:06:25Z</time>
      </trkpt>
      <trkpt lat="43.1093" lon="-0.68588">
        <ele>548.09</ele>
        <time>2012-06-17T12:06:34Z</time>
      </trkpt>
      <trkpt lat="43.10938" lon="-0.68581">
        <ele>549.05</ele>
        <time>2012-06-17T12:06:44Z</time>
      </trkpt>
      <trkpt lat="43.10946" lon="-0.68575">
        <ele>549.05</ele>
        <time>2012-06-17T12:06:53Z</time>
      </trkpt>
      <trkpt lat="43.10955" lon="-0.68569">
        <ele>549.53</ele>
        <time>2012-06-17T12:07:03Z</time>
      </trkpt>
      <trkpt lat="43.10965" lon="-0.68563">
        <ele>549.05</ele>
        <time>2012-06-17T12:07:13Z</time>
      </trkpt>
      <trkpt lat="43.10973" lon="-0.68557">
        <ele>550.01</ele>
        <time>2012-06-17T12:07:23Z</time>
      </trkpt>
      <trkpt lat="43.10981" lon="-0.68551">
        <ele>549.05</ele>
        <time>2012-06-17T12:07:33Z</time>
      </trkpt>
      <trkpt lat="43.1099" lon="-0.68546">
        <ele>548.57</ele>
        <time>2012-06-17T12:07:42Z</time>
      </trkpt>
      <trkpt lat="43.11" lon="-0.6854">
        <ele>547.61</ele>
        <time>2012-06-17T12:07:51Z</time>
      </trkpt>
      <trkpt lat="43.11009" lon="-0.68533">
        <ele>546.17</ele>
        <time>2012-06-17T12:08:00Z</time>
      </trkpt>
      <trkpt lat="43.11018" lon="-0.68528">
        <ele>545.69</ele>
        <time>2012-06-17T12:08:10Z</time>
      </trkpt>
      <trkpt lat="43.11027" lon="-0.68521">
        <ele>544.24</ele>
        <time>2012-06-17T12:08:19Z</time>
      </trkpt>
      <trkpt lat="43.11033" lon="-0.68509">
        <ele>543.76</ele>
        <time>2012-06-17T12:08:29Z</time>
      </trkpt>
      <trkpt lat="43.11035" lon="-0.68499">
        <ele>543.28</ele>
        <time>2012-06-17T12:13:04Z</time>
      </trkpt>
      <trkpt lat="43.11039" lon="-0.68486">
        <ele>542.8</ele>
        <time>2012-06-17T12:13:15Z</time>
      </trkpt>
      <trkpt lat="43.11043" lon="-0.68474">
        <ele>542.8</ele>
        <time>2012-06-17T12:13:25Z</time>
      </trkpt>
      <trkpt lat="43.11049" lon="-0.68462">
        <ele>542.8</ele>
        <time>2012-06-17T12:13:35Z</time>
      </trkpt>
      <trkpt lat="43.11052" lon="-0.68448">
        <ele>542.8</ele>
        <time>2012-06-17T12:13:44Z</time>
      </trkpt>
      <trkpt lat="43.11057" lon="-0.68436">
        <ele>542.8</ele>
        <time>2012-06-17T12:13:53Z</time>
      </trkpt>
      <trkpt lat="43.11061" lon="-0.68424">
        <ele>542.8</ele>
        <time>2012-06-17T12:14:02Z</time>
      </trkpt>
      <trkpt lat="43.11065" lon="-0.68412">
        <ele>542.32</ele>
        <time>2012-06-17T12:14:11Z</time>
      </trkpt>
      <trkpt lat="43.11069" lon="-0.68401">
        <ele>541.84</ele>
        <time>2012-06-17T12:14:20Z</time>
      </trkpt>
      <trkpt lat="43.11074" lon="-0.68389">
        <ele>541.84</ele>
        <time>2012-06-17T12:14:30Z</time>
      </trkpt>
      <trkpt lat="43.11071" lon="-0.68376">
        <ele>541.84</ele>
        <time>2012-06-17T12:14:43Z</time>
      </trkpt>
      <trkpt lat="43.11065" lon="-0.6837">
        <ele>543.28</ele>
        <time>2012-06-17T12:15:08Z</time>
      </trkpt>
      <trkpt lat="43.11061" lon="-0.68356">
        <ele>543.76</ele>
        <time>2012-06-17T12:15:19Z</time>
      </trkpt>
      <trkpt lat="43.11059" lon="-0.6834">
        <ele>543.76</ele>
        <time>2012-06-17T12:15:30Z</time>
      </trkpt>
      <trkpt lat="43.11059" lon="-0.68324">
        <ele>544.72</ele>
        <time>2012-06-17T12:15:41Z</time>
      </trkpt>
      <trkpt lat="43.11061" lon="-0.6831">
        <ele>544.24</ele>
        <time>2012-06-17T12:15:50Z</time>
      </trkpt>
      <trkpt lat="43.1106" lon="-0.68298">
        <ele>543.76</ele>
        <time>2012-06-17T12:15:58Z</time>
      </trkpt>
      <trkpt lat="43.1106" lon="-0.68285">
        <ele>544.24</ele>
        <time>2012-06-17T12:16:07Z</time>
      </trkpt>
      <trkpt lat="43.1106" lon="-0.68272">
        <ele>543.76</ele>
        <time>2012-06-17T12:16:16Z</time>
      </trkpt>
      <trkpt lat="43.11061" lon="-0.68259">
        <ele>543.76</ele>
        <time>2012-06-17T12:16:25Z</time>
      </trkpt>
      <trkpt lat="43.11061" lon="-0.68246">
        <ele>544.24</ele>
        <time>2012-06-17T12:16:34Z</time>
      </trkpt>
      <trkpt lat="43.11061" lon="-0.68233">
        <ele>543.76</ele>
        <time>2012-06-17T12:16:43Z</time>
      </trkpt>
      <trkpt lat="43.11062" lon="-0.6822">
        <ele>544.24</ele>
        <time>2012-06-17T12:16:52Z</time>
      </trkpt>
      <trkpt lat="43.11063" lon="-0.68206">
        <ele>544.24</ele>
        <time>2012-06-17T12:17:00Z</time>
      </trkpt>
      <trkpt lat="43.11064" lon="-0.68193">
        <ele>544.72</ele>
        <time>2012-06-17T12:17:09Z</time>
      </trkpt>
      <trkpt lat="43.11064" lon="-0.68179">
        <ele>545.69</ele>
        <time>2012-06-17T12:17:19Z</time>
      </trkpt>
      <trkpt lat="43.11064" lon="-0.68165">
        <ele>546.17</ele>
        <time>2012-06-17T12:17:29Z</time>
      </trkpt>
      <trkpt lat="43.11065" lon="-0.68153">
        <ele>546.17</ele>
        <time>2012-06-17T12:17:38Z</time>
      </trkpt>
      <trkpt lat="43.11064" lon="-0.6814">
        <ele>546.65</ele>
        <time>2012-06-17T12:17:49Z</time>
      </trkpt>
      <trkpt lat="43.11065" lon="-0.68127">
        <ele>547.61</ele>
        <time>2012-06-17T12:17:59Z</time>
      </trkpt>
      <trkpt lat="43.11067" lon="-0.68113">
        <ele>548.57</ele>
        <time>2012-06-17T12:18:09Z</time>
      </trkpt>
      <trkpt lat="43.11071" lon="-0.68101">
        <ele>549.53</ele>
        <time>2012-06-17T12:18:20Z</time>
      </trkpt>
      <trkpt lat="43.11074" lon="-0.68088">
        <ele>549.53</ele>
        <time>2012-06-17T12:18:30Z</time>
      </trkpt>
      <trkpt lat="43.11076" lon="-0.68076">
        <ele>550.01</ele>
        <time>2012-06-17T12:18:40Z</time>
      </trkpt>
      <trkpt lat="43.11079" lon="-0.68063">
        <ele>550.97</ele>
        <time>2012-06-17T12:18:50Z</time>
      </trkpt>
      <trkpt lat="43.11081" lon="-0.6805">
        <ele>550.49</ele>
        <time>2012-06-17T12:19:00Z</time>
      </trkpt>
      <trkpt lat="43.11084" lon="-0.68037">
        <ele>550.01</ele>
        <time>2012-06-17T12:19:09Z</time>
      </trkpt>
      <trkpt lat="43.11087" lon="-0.68025">
        <ele>549.53</ele>
        <time>2012-06-17T12:19:18Z</time>
      </trkpt>
      <trkpt lat="43.11091" lon="-0.68014">
        <ele>548.57</ele>
        <time>2012-06-17T12:19:27Z</time>
      </trkpt>
      <trkpt lat="43.11095" lon="-0.68004">
        <ele>548.09</ele>
        <time>2012-06-17T12:19:36Z</time>
      </trkpt>
      <trkpt lat="43.11101" lon="-0.67992">
        <ele>547.13</ele>
        <time>2012-06-17T12:19:45Z</time>
      </trkpt>
      <trkpt lat="43.11107" lon="-0.67981">
        <ele>546.65</ele>
        <time>2012-06-17T12:19:55Z</time>
      </trkpt>
      <trkpt lat="43.11113" lon="-0.67972">
        <ele>546.17</ele>
        <time>2012-06-17T12:20:04Z</time>
      </trkpt>
      <trkpt lat="43.1112" lon="-0.67961">
        <ele>545.69</ele>
        <time>2012-06-17T12:20:13Z</time>
      </trkpt>
      <trkpt lat="43.11123" lon="-0.67949">
        <ele>545.69</ele>
        <time>2012-06-17T12:20:22Z</time>
      </trkpt>
      <trkpt lat="43.11125" lon="-0.67937">
        <ele>546.65</ele>
        <time>2012-06-17T12:20:31Z</time>
      </trkpt>
      <trkpt lat="43.11129" lon="-0.67926">
        <ele>547.13</ele>
        <time>2012-06-17T12:20:49Z</time>
      </trkpt>
      <trkpt lat="43.11133" lon="-0.67913">
        <ele>548.09</ele>
        <time>2012-06-17T12:21:02Z</time>
      </trkpt>
      <trkpt lat="43.11138" lon="-0.679">
        <ele>548.09</ele>
        <time>2012-06-17T12:21:13Z</time>
      </trkpt>
      <trkpt lat="43.11144" lon="-0.67888">
        <ele>548.09</ele>
        <time>2012-06-17T12:21:22Z</time>
      </trkpt>
      <trkpt lat="43.1115" lon="-0.67877">
        <ele>548.09</ele>
        <time>2012-06-17T12:21:32Z</time>
      </trkpt>
      <trkpt lat="43.11155" lon="-0.67867">
        <ele>549.05</ele>
        <time>2012-06-17T12:21:42Z</time>
      </trkpt>
      <trkpt lat="43.11162" lon="-0.67855">
        <ele>550.97</ele>
        <time>2012-06-17T12:21:53Z</time>
      </trkpt>
      <trkpt lat="43.11168" lon="-0.67844">
        <ele>551.93</ele>
        <time>2012-06-17T12:22:04Z</time>
      </trkpt>
      <trkpt lat="43.11173" lon="-0.67832">
        <ele>553.38</ele>
        <time>2012-06-17T12:22:14Z</time>
      </trkpt>
      <trkpt lat="43.11176" lon="-0.6782">
        <ele>554.34</ele>
        <time>2012-06-17T12:22:25Z</time>
      </trkpt>
      <trkpt lat="43.11182" lon="-0.67808">
        <ele>555.3</ele>
        <time>2012-06-17T12:22:37Z</time>
      </trkpt>
      <trkpt lat="43.11188" lon="-0.67796">
        <ele>556.74</ele>
        <time>2012-06-17T12:22:49Z</time>
      </trkpt>
      <trkpt lat="43.11191" lon="-0.67783">
        <ele>558.66</ele>
        <time>2012-06-17T12:23:00Z</time>
      </trkpt>
      <trkpt lat="43.11192" lon="-0.67772">
        <ele>560.59</ele>
        <time>2012-06-17T12:23:10Z</time>
      </trkpt>
      <trkpt lat="43.11192" lon="-0.67759">
        <ele>561.07</ele>
        <time>2012-06-17T12:23:22Z</time>
      </trkpt>
      <trkpt lat="43.11193" lon="-0.67745">
        <ele>562.51</ele>
        <time>2012-06-17T12:23:33Z</time>
      </trkpt>
      <trkpt lat="43.11195" lon="-0.67731">
        <ele>563.47</ele>
        <time>2012-06-17T12:23:44Z</time>
      </trkpt>
      <trkpt lat="43.11195" lon="-0.67716">
        <ele>564.43</ele>
        <time>2012-06-17T12:23:56Z</time>
      </trkpt>
      <trkpt lat="43.11197" lon="-0.67702">
        <ele>564.43</ele>
        <time>2012-06-17T12:24:06Z</time>
      </trkpt>
      <trkpt lat="43.11198" lon="-0.67691">
        <ele>564.91</ele>
        <time>2012-06-17T12:24:18Z</time>
      </trkpt>
      <trkpt lat="43.11199" lon="-0.67677">
        <ele>565.87</ele>
        <time>2012-06-17T12:24:28Z</time>
      </trkpt>
      <trkpt lat="43.11198" lon="-0.67665">
        <ele>566.35</ele>
        <time>2012-06-17T12:24:37Z</time>
      </trkpt>
      <trkpt lat="43.11198" lon="-0.67644">
        <ele>566.83</ele>
        <time>2012-06-17T12:24:49Z</time>
      </trkpt>
      <trkpt lat="43.11202" lon="-0.67631">
        <ele>567.8</ele>
        <time>2012-06-17T12:25:01Z</time>
      </trkpt>
      <trkpt lat="43.11208" lon="-0.67621">
        <ele>568.28</ele>
        <time>2012-06-17T12:25:38Z</time>
      </trkpt>
      <trkpt lat="43.11214" lon="-0.67611">
        <ele>568.76</ele>
        <time>2012-06-17T12:25:46Z</time>
      </trkpt>
      <trkpt lat="43.11221" lon="-0.67602">
        <ele>569.24</ele>
        <time>2012-06-17T12:25:55Z</time>
      </trkpt>
      <trkpt lat="43.11226" lon="-0.6759">
        <ele>568.76</ele>
        <time>2012-06-17T12:26:04Z</time>
      </trkpt>
      <trkpt lat="43.11233" lon="-0.67578">
        <ele>569.72</ele>
        <time>2012-06-17T12:26:13Z</time>
      </trkpt>
      <trkpt lat="43.11242" lon="-0.67567">
        <ele>569.24</ele>
        <time>2012-06-17T12:26:23Z</time>
      </trkpt>
      <trkpt lat="43.11245" lon="-0.67555">
        <ele>568.76</ele>
        <time>2012-06-17T12:26:32Z</time>
      </trkpt>
      <trkpt lat="43.1125" lon="-0.67539">
        <ele>567.8</ele>
        <time>2012-06-17T12:26:42Z</time>
      </trkpt>
      <trkpt lat="43.11255" lon="-0.67525">
        <ele>567.32</ele>
        <time>2012-06-17T12:26:53Z</time>
      </trkpt>
      <trkpt lat="43.11262" lon="-0.67512">
        <ele>566.35</ele>
        <time>2012-06-17T12:27:02Z</time>
      </trkpt>
      <trkpt lat="43.11265" lon="-0.67499">
        <ele>564.91</ele>
        <time>2012-06-17T12:27:11Z</time>
      </trkpt>
      <trkpt lat="43.11271" lon="-0.67489">
        <ele>564.43</ele>
        <time>2012-06-17T12:27:20Z</time>
      </trkpt>
      <trkpt lat="43.11276" lon="-0.67479">
        <ele>562.99</ele>
        <time>2012-06-17T12:27:30Z</time>
      </trkpt>
      <trkpt lat="43.11282" lon="-0.67469">
        <ele>562.03</ele>
        <time>2012-06-17T12:27:40Z</time>
      </trkpt>
      <trkpt lat="43.11291" lon="-0.67461">
        <ele>561.07</ele>
        <time>2012-06-17T12:27:48Z</time>
      </trkpt>
      <trkpt lat="43.11299" lon="-0.67454">
        <ele>560.11</ele>
        <time>2012-06-17T12:28:08Z</time>
      </trkpt>
      <trkpt lat="43.11308" lon="-0.67449">
        <ele>559.14</ele>
        <time>2012-06-17T12:28:17Z</time>
      </trkpt>
      <trkpt lat="43.11317" lon="-0.67441">
        <ele>558.18</ele>
        <time>2012-06-17T12:28:29Z</time>
      </trkpt>
      <trkpt lat="43.11326" lon="-0.67438">
        <ele>557.22</ele>
        <time>2012-06-17T12:28:59Z</time>
      </trkpt>
      <trkpt lat="43.11328" lon="-0.6744">
        <ele>557.7</ele>
        <time>2012-06-17T12:30:41Z</time>
      </trkpt>
      <trkpt lat="43.1133" lon="-0.67441">
        <ele>555.78</ele>
        <time>2012-06-17T12:35:14Z</time>
      </trkpt>
      <trkpt lat="43.11327" lon="-0.67428">
        <ele>556.74</ele>
        <time>2012-06-17T12:35:47Z</time>
      </trkpt>
      <trkpt lat="43.11332" lon="-0.67419">
        <ele>557.7</ele>
        <time>2012-06-17T12:36:09Z</time>
      </trkpt>
      <trkpt lat="43.11338" lon="-0.67407">
        <ele>559.62</ele>
        <time>2012-06-17T12:36:23Z</time>
      </trkpt>
      <trkpt lat="43.11342" lon="-0.67395">
        <ele>561.55</ele>
        <time>2012-06-17T12:36:38Z</time>
      </trkpt>
      <trkpt lat="43.11348" lon="-0.67387">
        <ele>563.47</ele>
        <time>2012-06-17T12:36:54Z</time>
      </trkpt>
      <trkpt lat="43.11353" lon="-0.67378">
        <ele>563.47</ele>
        <time>2012-06-17T12:37:08Z</time>
      </trkpt>
      <trkpt lat="43.1136" lon="-0.67369">
        <ele>564.91</ele>
        <time>2012-06-17T12:37:20Z</time>
      </trkpt>
      <trkpt lat="43.11368" lon="-0.6736">
        <ele>564.43</ele>
        <time>2012-06-17T12:37:30Z</time>
      </trkpt>
      <trkpt lat="43.11376" lon="-0.67352">
        <ele>563.95</ele>
        <time>2012-06-17T12:37:39Z</time>
      </trkpt>
      <trkpt lat="43.11384" lon="-0.67346">
        <ele>563.47</ele>
        <time>2012-06-17T12:37:47Z</time>
      </trkpt>
      <trkpt lat="43.11392" lon="-0.6734">
        <ele>562.03</ele>
        <time>2012-06-17T12:37:55Z</time>
      </trkpt>
      <trkpt lat="43.11402" lon="-0.67336">
        <ele>561.55</ele>
        <time>2012-06-17T12:38:04Z</time>
      </trkpt>
      <trkpt lat="43.11412" lon="-0.67333">
        <ele>561.07</ele>
        <time>2012-06-17T12:38:15Z</time>
      </trkpt>
      <trkpt lat="43.1142" lon="-0.67328">
        <ele>560.11</ele>
        <time>2012-06-17T12:38:23Z</time>
      </trkpt>
      <trkpt lat="43.1143" lon="-0.67324">
        <ele>560.11</ele>
        <time>2012-06-17T12:38:32Z</time>
      </trkpt>
      <trkpt lat="43.11441" lon="-0.67321">
        <ele>560.11</ele>
        <time>2012-06-17T12:38:40Z</time>
      </trkpt>
      <trkpt lat="43.11449" lon="-0.67319">
        <ele>559.62</ele>
        <time>2012-06-17T12:38:48Z</time>
      </trkpt>
      <trkpt lat="43.11459" lon="-0.67316">
        <ele>560.11</ele>
        <time>2012-06-17T12:38:56Z</time>
      </trkpt>
      <trkpt lat="43.11468" lon="-0.67312">
        <ele>560.59</ele>
        <time>2012-06-17T12:40:25Z</time>
      </trkpt>
      <trkpt lat="43.11478" lon="-0.6731">
        <ele>560.11</ele>
        <time>2012-06-17T12:41:06Z</time>
      </trkpt>
      <trkpt lat="43.11488" lon="-0.67308">
        <ele>560.11</ele>
        <time>2012-06-17T12:41:15Z</time>
      </trkpt>
      <trkpt lat="43.11497" lon="-0.67306">
        <ele>559.62</ele>
        <time>2012-06-17T12:41:23Z</time>
      </trkpt>
      <trkpt lat="43.11506" lon="-0.67304">
        <ele>560.11</ele>
        <time>2012-06-17T12:41:32Z</time>
      </trkpt>
      <trkpt lat="43.11516" lon="-0.67302">
        <ele>559.14</ele>
        <time>2012-06-17T12:41:41Z</time>
      </trkpt>
      <trkpt lat="43.11525" lon="-0.67304">
        <ele>558.66</ele>
        <time>2012-06-17T12:41:50Z</time>
      </trkpt>
      <trkpt lat="43.11535" lon="-0.67305">
        <ele>558.66</ele>
        <time>2012-06-17T12:41:58Z</time>
      </trkpt>
      <trkpt lat="43.11544" lon="-0.67306">
        <ele>558.66</ele>
        <time>2012-06-17T12:42:07Z</time>
      </trkpt>
      <trkpt lat="43.11553" lon="-0.67306">
        <ele>559.14</ele>
        <time>2012-06-17T12:42:16Z</time>
      </trkpt>
      <trkpt lat="43.11564" lon="-0.67305">
        <ele>559.62</ele>
        <time>2012-06-17T12:42:26Z</time>
      </trkpt>
      <trkpt lat="43.11573" lon="-0.67303">
        <ele>560.59</ele>
        <time>2012-06-17T12:42:36Z</time>
      </trkpt>
      <trkpt lat="43.11582" lon="-0.673">
        <ele>561.07</ele>
        <time>2012-06-17T12:42:46Z</time>
      </trkpt>
      <trkpt lat="43.11591" lon="-0.67291">
        <ele>563.47</ele>
        <time>2012-06-17T12:42:57Z</time>
      </trkpt>
      <trkpt lat="43.11599" lon="-0.67284">
        <ele>563.95</ele>
        <time>2012-06-17T12:43:08Z</time>
      </trkpt>
      <trkpt lat="43.11607" lon="-0.6728">
        <ele>564.43</ele>
        <time>2012-06-17T12:43:18Z</time>
      </trkpt>
      <trkpt lat="43.11616" lon="-0.67286">
        <ele>563.95</ele>
        <time>2012-06-17T12:43:28Z</time>
      </trkpt>
      <trkpt lat="43.11623" lon="-0.67297">
        <ele>564.43</ele>
        <time>2012-06-17T12:43:37Z</time>
      </trkpt>
      <trkpt lat="43.1163" lon="-0.67308">
        <ele>564.91</ele>
        <time>2012-06-17T12:43:46Z</time>
      </trkpt>
      <trkpt lat="43.11638" lon="-0.67313">
        <ele>564.43</ele>
        <time>2012-06-17T12:43:54Z</time>
      </trkpt>
      <trkpt lat="43.11646" lon="-0.67321">
        <ele>563.95</ele>
        <time>2012-06-17T12:44:02Z</time>
      </trkpt>
      <trkpt lat="43.11654" lon="-0.67325">
        <ele>563.95</ele>
        <time>2012-06-17T12:44:10Z</time>
      </trkpt>
      <trkpt lat="43.11663" lon="-0.67329">
        <ele>562.99</ele>
        <time>2012-06-17T12:44:18Z</time>
      </trkpt>
      <trkpt lat="43.11674" lon="-0.67331">
        <ele>562.99</ele>
        <time>2012-06-17T12:44:26Z</time>
      </trkpt>
      <trkpt lat="43.11684" lon="-0.67332">
        <ele>562.51</ele>
        <time>2012-06-17T12:44:34Z</time>
      </trkpt>
      <trkpt lat="43.11694" lon="-0.67333">
        <ele>563.47</ele>
        <time>2012-06-17T12:44:43Z</time>
      </trkpt>
      <trkpt lat="43.11704" lon="-0.67332">
        <ele>563.95</ele>
        <time>2012-06-17T12:44:51Z</time>
      </trkpt>
      <trkpt lat="43.11713" lon="-0.67334">
        <ele>563.95</ele>
        <time>2012-06-17T12:45:00Z</time>
      </trkpt>
      <trkpt lat="43.11722" lon="-0.6734">
        <ele>563.47</ele>
        <time>2012-06-17T12:45:09Z</time>
      </trkpt>
      <trkpt lat="43.11729" lon="-0.67348">
        <ele>563.47</ele>
        <time>2012-06-17T12:45:20Z</time>
      </trkpt>
      <trkpt lat="43.11736" lon="-0.67357">
        <ele>561.55</ele>
        <time>2012-06-17T12:45:29Z</time>
      </trkpt>
      <trkpt lat="43.11743" lon="-0.67366">
        <ele>561.07</ele>
        <time>2012-06-17T12:45:38Z</time>
      </trkpt>
      <trkpt lat="43.11749" lon="-0.67376">
        <ele>560.59</ele>
        <time>2012-06-17T12:45:47Z</time>
      </trkpt>
      <trkpt lat="43.11755" lon="-0.67386">
        <ele>559.14</ele>
        <time>2012-06-17T12:45:56Z</time>
      </trkpt>
      <trkpt lat="43.11761" lon="-0.67397">
        <ele>557.22</ele>
        <time>2012-06-17T12:46:06Z</time>
      </trkpt>
      <trkpt lat="43.11766" lon="-0.67408">
        <ele>555.78</ele>
        <time>2012-06-17T12:46:16Z</time>
      </trkpt>
      <trkpt lat="43.1177" lon="-0.67418">
        <ele>554.34</ele>
        <time>2012-06-17T12:46:26Z</time>
      </trkpt>
      <trkpt lat="43.11773" lon="-0.67431">
        <ele>551.45</ele>
        <time>2012-06-17T12:46:37Z</time>
      </trkpt>
      <trkpt lat="43.11778" lon="-0.67441">
        <ele>548.57</ele>
        <time>2012-06-17T12:46:48Z</time>
      </trkpt>
      <trkpt lat="43.11783" lon="-0.67452">
        <ele>546.17</ele>
        <time>2012-06-17T12:46:59Z</time>
      </trkpt>
      <trkpt lat="43.1179" lon="-0.67461">
        <ele>543.76</ele>
        <time>2012-06-17T12:47:08Z</time>
      </trkpt>
      <trkpt lat="43.11796" lon="-0.67471">
        <ele>540.4</ele>
        <time>2012-06-17T12:47:20Z</time>
      </trkpt>
      <trkpt lat="43.11802" lon="-0.67479">
        <ele>537.99</ele>
        <time>2012-06-17T12:47:31Z</time>
      </trkpt>
      <trkpt lat="43.11809" lon="-0.67488">
        <ele>535.59</ele>
        <time>2012-06-17T12:47:42Z</time>
      </trkpt>
      <trkpt lat="43.11816" lon="-0.67497">
        <ele>532.71</ele>
        <time>2012-06-17T12:47:53Z</time>
      </trkpt>
      <trkpt lat="43.11824" lon="-0.67502">
        <ele>531.75</ele>
        <time>2012-06-17T12:48:02Z</time>
      </trkpt>
      <trkpt lat="43.11833" lon="-0.67504">
        <ele>530.79</ele>
        <time>2012-06-17T12:48:11Z</time>
      </trkpt>
      <trkpt lat="43.11842" lon="-0.67506">
        <ele>529.82</ele>
        <time>2012-06-17T12:48:20Z</time>
      </trkpt>
      <trkpt lat="43.1185" lon="-0.67512">
        <ele>528.38</ele>
        <time>2012-06-17T12:48:30Z</time>
      </trkpt>
      <trkpt lat="43.11859" lon="-0.67516">
        <ele>527.42</ele>
        <time>2012-06-17T12:48:39Z</time>
      </trkpt>
      <trkpt lat="43.11869" lon="-0.67519">
        <ele>526.94</ele>
        <time>2012-06-17T12:48:48Z</time>
      </trkpt>
      <trkpt lat="43.11879" lon="-0.67517">
        <ele>527.42</ele>
        <time>2012-06-17T12:48:57Z</time>
      </trkpt>
      <trkpt lat="43.11887" lon="-0.67515">
        <ele>527.42</ele>
        <time>2012-06-17T12:49:05Z</time>
      </trkpt>
      <trkpt lat="43.11897" lon="-0.67515">
        <ele>526.94</ele>
        <time>2012-06-17T12:49:14Z</time>
      </trkpt>
      <trkpt lat="43.11907" lon="-0.67514">
        <ele>526.46</ele>
        <time>2012-06-17T12:49:23Z</time>
      </trkpt>
      <trkpt lat="43.11917" lon="-0.67514">
        <ele>526.46</ele>
        <time>2012-06-17T12:49:32Z</time>
      </trkpt>
      <trkpt lat="43.11927" lon="-0.67515">
        <ele>525.98</ele>
        <time>2012-06-17T12:49:42Z</time>
      </trkpt>
      <trkpt lat="43.11935" lon="-0.67518">
        <ele>525.98</ele>
        <time>2012-06-17T12:49:51Z</time>
      </trkpt>
      <trkpt lat="43.11944" lon="-0.6752">
        <ele>525.98</ele>
        <time>2012-06-17T12:50:24Z</time>
      </trkpt>
      <trkpt lat="43.11949" lon="-0.67522">
        <ele>527.42</ele>
        <time>2012-06-17T13:02:01Z</time>
      </trkpt>
      <trkpt lat="43.11959" lon="-0.67522">
        <ele>527.9</ele>
        <time>2012-06-17T13:02:13Z</time>
      </trkpt>
      <trkpt lat="43.11968" lon="-0.67527">
        <ele>527.9</ele>
        <time>2012-06-17T13:02:26Z</time>
      </trkpt>
      <trkpt lat="43.11976" lon="-0.67534">
        <ele>527.42</ele>
        <time>2012-06-17T13:02:38Z</time>
      </trkpt>
      <trkpt lat="43.11984" lon="-0.67542">
        <ele>527.9</ele>
        <time>2012-06-17T13:02:49Z</time>
      </trkpt>
      <trkpt lat="43.11991" lon="-0.67549">
        <ele>527.42</ele>
        <time>2012-06-17T13:02:59Z</time>
      </trkpt>
      <trkpt lat="43.11998" lon="-0.67558">
        <ele>527.42</ele>
        <time>2012-06-17T13:03:09Z</time>
      </trkpt>
      <trkpt lat="43.12005" lon="-0.67567">
        <ele>526.46</ele>
        <time>2012-06-17T13:03:19Z</time>
      </trkpt>
      <trkpt lat="43.12013" lon="-0.67574">
        <ele>526.46</ele>
        <time>2012-06-17T13:03:29Z</time>
      </trkpt>
      <trkpt lat="43.12022" lon="-0.67575">
        <ele>525.5</ele>
        <time>2012-06-17T13:03:43Z</time>
      </trkpt>
      <trkpt lat="43.12029" lon="-0.67583">
        <ele>526.46</ele>
        <time>2012-06-17T13:03:52Z</time>
      </trkpt>
      <trkpt lat="43.12038" lon="-0.67589">
        <ele>525.5</ele>
        <time>2012-06-17T13:04:01Z</time>
      </trkpt>
      <trkpt lat="43.12046" lon="-0.67595">
        <ele>524.06</ele>
        <time>2012-06-17T13:04:09Z</time>
      </trkpt>
      <trkpt lat="43.12054" lon="-0.67601">
        <ele>524.06</ele>
        <time>2012-06-17T13:04:17Z</time>
      </trkpt>
      <trkpt lat="43.12064" lon="-0.67607">
        <ele>525.02</ele>
        <time>2012-06-17T13:04:26Z</time>
      </trkpt>
      <trkpt lat="43.12072" lon="-0.67613">
        <ele>525.02</ele>
        <time>2012-06-17T13:04:34Z</time>
      </trkpt>
      <trkpt lat="43.1208" lon="-0.67619">
        <ele>525.5</ele>
        <time>2012-06-17T13:04:43Z</time>
      </trkpt>
      <trkpt lat="43.12089" lon="-0.67625">
        <ele>525.5</ele>
        <time>2012-06-17T13:04:52Z</time>
      </trkpt>
      <trkpt lat="43.12097" lon="-0.67628">
        <ele>525.98</ele>
        <time>2012-06-17T13:05:02Z</time>
      </trkpt>
      <trkpt lat="43.12108" lon="-0.6763">
        <ele>525.98</ele>
        <time>2012-06-17T13:05:12Z</time>
      </trkpt>
      <trkpt lat="43.12117" lon="-0.67634">
        <ele>525.98</ele>
        <time>2012-06-17T13:05:22Z</time>
      </trkpt>
      <trkpt lat="43.12126" lon="-0.67637">
        <ele>526.94</ele>
        <time>2012-06-17T13:05:33Z</time>
      </trkpt>
      <trkpt lat="43.12136" lon="-0.67641">
        <ele>527.42</ele>
        <time>2012-06-17T13:05:43Z</time>
      </trkpt>
      <trkpt lat="43.12147" lon="-0.67641">
        <ele>526.94</ele>
        <time>2012-06-17T13:05:53Z</time>
      </trkpt>
      <trkpt lat="43.12157" lon="-0.6764">
        <ele>526.46</ele>
        <time>2012-06-17T13:06:02Z</time>
      </trkpt>
      <trkpt lat="43.12166" lon="-0.67641">
        <ele>525.98</ele>
        <time>2012-06-17T13:06:11Z</time>
      </trkpt>
      <trkpt lat="43.12176" lon="-0.67642">
        <ele>525.98</ele>
        <time>2012-06-17T13:06:20Z</time>
      </trkpt>
      <trkpt lat="43.12186" lon="-0.67644">
        <ele>525.5</ele>
        <time>2012-06-17T13:06:29Z</time>
      </trkpt>
      <trkpt lat="43.12196" lon="-0.67645">
        <ele>525.5</ele>
        <time>2012-06-17T13:06:39Z</time>
      </trkpt>
      <trkpt lat="43.12204" lon="-0.67647">
        <ele>525.5</ele>
        <time>2012-06-17T13:06:48Z</time>
      </trkpt>
      <trkpt lat="43.12213" lon="-0.67647">
        <ele>525.5</ele>
        <time>2012-06-17T13:06:57Z</time>
      </trkpt>
      <trkpt lat="43.12223" lon="-0.6765">
        <ele>525.02</ele>
        <time>2012-06-17T13:07:07Z</time>
      </trkpt>
      <trkpt lat="43.12233" lon="-0.67654">
        <ele>524.54</ele>
        <time>2012-06-17T13:07:16Z</time>
      </trkpt>
      <trkpt lat="43.12242" lon="-0.67659">
        <ele>525.02</ele>
        <time>2012-06-17T13:07:26Z</time>
      </trkpt>
      <trkpt lat="43.1225" lon="-0.67664">
        <ele>524.54</ele>
        <time>2012-06-17T13:07:36Z</time>
      </trkpt>
      <trkpt lat="43.1226" lon="-0.67664">
        <ele>525.02</ele>
        <time>2012-06-17T13:07:56Z</time>
      </trkpt>
      <trkpt lat="43.1227" lon="-0.6766">
        <ele>525.02</ele>
        <time>2012-06-17T13:08:05Z</time>
      </trkpt>
      <trkpt lat="43.12278" lon="-0.67652">
        <ele>525.02</ele>
        <time>2012-06-17T13:08:15Z</time>
      </trkpt>
      <trkpt lat="43.12287" lon="-0.67646">
        <ele>525.98</ele>
        <time>2012-06-17T13:08:25Z</time>
      </trkpt>
      <trkpt lat="43.12296" lon="-0.6764">
        <ele>525.98</ele>
        <time>2012-06-17T13:08:34Z</time>
      </trkpt>
      <trkpt lat="43.12305" lon="-0.67636">
        <ele>525.5</ele>
        <time>2012-06-17T13:08:43Z</time>
      </trkpt>
      <trkpt lat="43.12315" lon="-0.67634">
        <ele>524.54</ele>
        <time>2012-06-17T13:08:53Z</time>
      </trkpt>
      <trkpt lat="43.12325" lon="-0.67635">
        <ele>524.06</ele>
        <time>2012-06-17T13:09:02Z</time>
      </trkpt>
      <trkpt lat="43.12334" lon="-0.67641">
        <ele>524.06</ele>
        <time>2012-06-17T13:09:11Z</time>
      </trkpt>
      <trkpt lat="43.12341" lon="-0.67647">
        <ele>523.58</ele>
        <time>2012-06-17T13:09:20Z</time>
      </trkpt>
      <trkpt lat="43.12351" lon="-0.67653">
        <ele>523.09</ele>
        <time>2012-06-17T13:09:31Z</time>
      </trkpt>
      <trkpt lat="43.1236" lon="-0.67655">
        <ele>521.65</ele>
        <time>2012-06-17T13:09:45Z</time>
      </trkpt>
      <trkpt lat="43.1237" lon="-0.67658">
        <ele>517.81</ele>
        <time>2012-06-17T13:09:57Z</time>
      </trkpt>
      <trkpt lat="43.12379" lon="-0.67661">
        <ele>515.4</ele>
        <time>2012-06-17T13:10:09Z</time>
      </trkpt>
      <trkpt lat="43.12388" lon="-0.67665">
        <ele>513.48</ele>
        <time>2012-06-17T13:10:21Z</time>
      </trkpt>
      <trkpt lat="43.12397" lon="-0.67669">
        <ele>511.56</ele>
        <time>2012-06-17T13:10:36Z</time>
      </trkpt>
      <trkpt lat="43.12406" lon="-0.67671">
        <ele>508.67</ele>
        <time>2012-06-17T13:10:49Z</time>
      </trkpt>
      <trkpt lat="43.12415" lon="-0.67668">
        <ele>505.31</ele>
        <time>2012-06-17T13:11:03Z</time>
      </trkpt>
      <trkpt lat="43.12424" lon="-0.67664">
        <ele>502.43</ele>
        <time>2012-06-17T13:11:18Z</time>
      </trkpt>
      <trkpt lat="43.12431" lon="-0.67658">
        <ele>499.54</ele>
        <time>2012-06-17T13:11:32Z</time>
      </trkpt>
      <trkpt lat="43.12438" lon="-0.67651">
        <ele>495.7</ele>
        <time>2012-06-17T13:11:46Z</time>
      </trkpt>
      <trkpt lat="43.12443" lon="-0.6764">
        <ele>492.33</ele>
        <time>2012-06-17T13:12:00Z</time>
      </trkpt>
      <trkpt lat="43.12451" lon="-0.6763">
        <ele>488.01</ele>
        <time>2012-06-17T13:12:10Z</time>
      </trkpt>
      <trkpt lat="43.1246" lon="-0.67621">
        <ele>483.68</ele>
        <time>2012-06-17T13:12:19Z</time>
      </trkpt>
      <trkpt lat="43.12466" lon="-0.6761">
        <ele>480.32</ele>
        <time>2012-06-17T13:12:28Z</time>
      </trkpt>
      <trkpt lat="43.12468" lon="-0.67598">
        <ele>478.39</ele>
        <time>2012-06-17T13:12:40Z</time>
      </trkpt>
      <trkpt lat="43.12471" lon="-0.67587">
        <ele>476.47</ele>
        <time>2012-06-17T13:12:51Z</time>
      </trkpt>
      <trkpt lat="43.12473" lon="-0.67575">
        <ele>473.11</ele>
        <time>2012-06-17T13:14:11Z</time>
      </trkpt>
      <trkpt lat="43.12479" lon="-0.67566">
        <ele>471.66</ele>
        <time>2012-06-17T13:14:27Z</time>
      </trkpt>
      <trkpt lat="43.12489" lon="-0.67556">
        <ele>470.22</ele>
        <time>2012-06-17T13:14:38Z</time>
      </trkpt>
      <trkpt lat="43.12497" lon="-0.6755">
        <ele>468.78</ele>
        <time>2012-06-17T13:14:46Z</time>
      </trkpt>
      <trkpt lat="43.12508" lon="-0.67544">
        <ele>467.34</ele>
        <time>2012-06-17T13:14:57Z</time>
      </trkpt>
      <trkpt lat="43.12518" lon="-0.67539">
        <ele>465.9</ele>
        <time>2012-06-17T13:17:09Z</time>
      </trkpt>
      <trkpt lat="43.12528" lon="-0.67533">
        <ele>464.45</ele>
        <time>2012-06-17T13:17:23Z</time>
      </trkpt>
      <trkpt lat="43.12537" lon="-0.6753">
        <ele>462.53</ele>
        <time>2012-06-17T13:17:36Z</time>
      </trkpt>
      <trkpt lat="43.12546" lon="-0.67526">
        <ele>461.09</ele>
        <time>2012-06-17T13:17:46Z</time>
      </trkpt>
      <trkpt lat="43.12555" lon="-0.67521">
        <ele>458.69</ele>
        <time>2012-06-17T13:17:59Z</time>
      </trkpt>
      <trkpt lat="43.12563" lon="-0.67518">
        <ele>455.8</ele>
        <time>2012-06-17T13:18:12Z</time>
      </trkpt>
      <trkpt lat="43.12571" lon="-0.67514">
        <ele>453.88</ele>
        <time>2012-06-17T13:18:24Z</time>
      </trkpt>
      <trkpt lat="43.12581" lon="-0.67512">
        <ele>451.96</ele>
        <time>2012-06-17T13:18:37Z</time>
      </trkpt>
      <trkpt lat="43.12589" lon="-0.67505">
        <ele>449.07</ele>
        <time>2012-06-17T13:19:01Z</time>
      </trkpt>
      <trkpt lat="43.12595" lon="-0.67495">
        <ele>447.15</ele>
        <time>2012-06-17T13:19:12Z</time>
      </trkpt>
      <trkpt lat="43.12601" lon="-0.67486">
        <ele>444.75</ele>
        <time>2012-06-17T13:19:24Z</time>
      </trkpt>
      <trkpt lat="43.12608" lon="-0.67477">
        <ele>443.31</ele>
        <time>2012-06-17T13:19:36Z</time>
      </trkpt>
      <trkpt lat="43.12612" lon="-0.67467">
        <ele>441.38</ele>
        <time>2012-06-17T13:19:47Z</time>
      </trkpt>
      <trkpt lat="43.12617" lon="-0.67454">
        <ele>439.46</ele>
        <time>2012-06-17T13:19:59Z</time>
      </trkpt>
      <trkpt lat="43.12619" lon="-0.67442">
        <ele>437.54</ele>
        <time>2012-06-17T13:20:11Z</time>
      </trkpt>
      <trkpt lat="43.1262" lon="-0.6743">
        <ele>435.61</ele>
        <time>2012-06-17T13:20:24Z</time>
      </trkpt>
      <trkpt lat="43.12622" lon="-0.6742">
        <ele>433.21</ele>
        <time>2012-06-17T13:20:39Z</time>
      </trkpt>
      <trkpt lat="43.1263" lon="-0.67413">
        <ele>430.81</ele>
        <time>2012-06-17T13:20:52Z</time>
      </trkpt>
      <trkpt lat="43.12637" lon="-0.67419">
        <ele>429.37</ele>
        <time>2012-06-17T13:21:02Z</time>
      </trkpt>
      <trkpt lat="43.12643" lon="-0.67428">
        <ele>427.92</ele>
        <time>2012-06-17T13:21:13Z</time>
      </trkpt>
      <trkpt lat="43.12648" lon="-0.67439">
        <ele>426.96</ele>
        <time>2012-06-17T13:21:24Z</time>
      </trkpt>
      <trkpt lat="43.12651" lon="-0.67453">
        <ele>425.04</ele>
        <time>2012-06-17T13:21:36Z</time>
      </trkpt>
      <trkpt lat="43.12653" lon="-0.67467">
        <ele>423.12</ele>
        <time>2012-06-17T13:21:46Z</time>
      </trkpt>
      <trkpt lat="43.12654" lon="-0.6748">
        <ele>422.64</ele>
        <time>2012-06-17T13:21:56Z</time>
      </trkpt>
      <trkpt lat="43.12654" lon="-0.67494">
        <ele>422.16</ele>
        <time>2012-06-17T13:22:06Z</time>
      </trkpt>
      <trkpt lat="43.12654" lon="-0.67508">
        <ele>420.71</ele>
        <time>2012-06-17T13:22:18Z</time>
      </trkpt>
      <trkpt lat="43.12661" lon="-0.67517">
        <ele>420.23</ele>
        <time>2012-06-17T13:22:29Z</time>
      </trkpt>
      <trkpt lat="43.1267" lon="-0.67515">
        <ele>420.23</ele>
        <time>2012-06-17T13:22:42Z</time>
      </trkpt>
      <trkpt lat="43.12677" lon="-0.67505">
        <ele>420.23</ele>
        <time>2012-06-17T13:23:13Z</time>
      </trkpt>
      <trkpt lat="43.12683" lon="-0.67495">
        <ele>420.71</ele>
        <time>2012-06-17T13:23:24Z</time>
      </trkpt>
      <trkpt lat="43.12691" lon="-0.67487">
        <ele>421.19</ele>
        <time>2012-06-17T13:23:36Z</time>
      </trkpt>
      <trkpt lat="43.12702" lon="-0.67477">
        <ele>422.64</ele>
        <time>2012-06-17T13:23:50Z</time>
      </trkpt>
      <trkpt lat="43.12711" lon="-0.67479">
        <ele>423.12</ele>
        <time>2012-06-17T13:24:04Z</time>
      </trkpt>
      <trkpt lat="43.12718" lon="-0.67489">
        <ele>424.08</ele>
        <time>2012-06-17T13:24:16Z</time>
      </trkpt>
      <trkpt lat="43.12726" lon="-0.67498">
        <ele>423.6</ele>
        <time>2012-06-17T13:24:27Z</time>
      </trkpt>
      <trkpt lat="43.12735" lon="-0.67506">
        <ele>424.08</ele>
        <time>2012-06-17T13:24:37Z</time>
      </trkpt>
      <trkpt lat="43.12743" lon="-0.67514">
        <ele>423.6</ele>
        <time>2012-06-17T13:24:46Z</time>
      </trkpt>
      <trkpt lat="43.12752" lon="-0.67522">
        <ele>424.08</ele>
        <time>2012-06-17T13:24:57Z</time>
      </trkpt>
      <trkpt lat="43.12761" lon="-0.67528">
        <ele>424.08</ele>
        <time>2012-06-17T13:25:08Z</time>
      </trkpt>
      <trkpt lat="43.12771" lon="-0.6753">
        <ele>425.04</ele>
        <time>2012-06-17T13:25:19Z</time>
      </trkpt>
      <trkpt lat="43.12782" lon="-0.67529">
        <ele>425.52</ele>
        <time>2012-06-17T13:25:29Z</time>
      </trkpt>
      <trkpt lat="43.12792" lon="-0.6753">
        <ele>424.56</ele>
        <time>2012-06-17T13:25:38Z</time>
      </trkpt>
      <trkpt lat="43.12801" lon="-0.67531">
        <ele>423.6</ele>
        <time>2012-06-17T13:25:49Z</time>
      </trkpt>
      <trkpt lat="43.12811" lon="-0.67531">
        <ele>421.68</ele>
        <time>2012-06-17T13:26:02Z</time>
      </trkpt>
      <trkpt lat="43.1282" lon="-0.67533">
        <ele>419.27</ele>
        <time>2012-06-17T13:26:14Z</time>
      </trkpt>
      <trkpt lat="43.1283" lon="-0.67536">
        <ele>417.83</ele>
        <time>2012-06-17T13:26:25Z</time>
      </trkpt>
      <trkpt lat="43.12839" lon="-0.67539">
        <ele>415.43</ele>
        <time>2012-06-17T13:26:37Z</time>
      </trkpt>
      <trkpt lat="43.12845" lon="-0.67549">
        <ele>414.95</ele>
        <time>2012-06-17T13:26:47Z</time>
      </trkpt>
      <trkpt lat="43.12854" lon="-0.67555">
        <ele>413.5</ele>
        <time>2012-06-17T13:26:58Z</time>
      </trkpt>
      <trkpt lat="43.12861" lon="-0.67545">
        <ele>412.06</ele>
        <time>2012-06-17T13:27:09Z</time>
      </trkpt>
      <trkpt lat="43.1286" lon="-0.67528">
        <ele>410.62</ele>
        <time>2012-06-17T13:27:19Z</time>
      </trkpt>
      <trkpt lat="43.12861" lon="-0.67513">
        <ele>408.22</ele>
        <time>2012-06-17T13:27:29Z</time>
      </trkpt>
      <trkpt lat="43.1286" lon="-0.67501">
        <ele>407.26</ele>
        <time>2012-06-17T13:27:40Z</time>
      </trkpt>
      <trkpt lat="43.12865" lon="-0.67488">
        <ele>405.81</ele>
        <time>2012-06-17T13:27:50Z</time>
      </trkpt>
      <trkpt lat="43.12872" lon="-0.67476">
        <ele>404.85</ele>
        <time>2012-06-17T13:28:00Z</time>
      </trkpt>
      <trkpt lat="43.12878" lon="-0.67466">
        <ele>403.41</ele>
        <time>2012-06-17T13:28:10Z</time>
      </trkpt>
      <trkpt lat="43.12884" lon="-0.67457">
        <ele>403.89</ele>
        <time>2012-06-17T13:28:20Z</time>
      </trkpt>
      <trkpt lat="43.12891" lon="-0.67448">
        <ele>404.85</ele>
        <time>2012-06-17T13:28:30Z</time>
      </trkpt>
      <trkpt lat="43.12897" lon="-0.67438">
        <ele>406.29</ele>
        <time>2012-06-17T13:28:40Z</time>
      </trkpt>
      <trkpt lat="43.12904" lon="-0.6743">
        <ele>406.77</ele>
        <time>2012-06-17T13:28:50Z</time>
      </trkpt>
      <trkpt lat="43.12912" lon="-0.6742">
        <ele>406.29</ele>
        <time>2012-06-17T13:29:00Z</time>
      </trkpt>
      <trkpt lat="43.12919" lon="-0.6741">
        <ele>406.29</ele>
        <time>2012-06-17T13:29:09Z</time>
      </trkpt>
      <trkpt lat="43.12925" lon="-0.674">
        <ele>406.29</ele>
        <time>2012-06-17T13:29:19Z</time>
      </trkpt>
      <trkpt lat="43.1293" lon="-0.6739">
        <ele>403.89</ele>
        <time>2012-06-17T13:29:30Z</time>
      </trkpt>
      <trkpt lat="43.12938" lon="-0.67384">
        <ele>401.49</ele>
        <time>2012-06-17T13:29:42Z</time>
      </trkpt>
      <trkpt lat="43.12946" lon="-0.67379">
        <ele>399.57</ele>
        <time>2012-06-17T13:29:53Z</time>
      </trkpt>
      <trkpt lat="43.12954" lon="-0.67375">
        <ele>397.64</ele>
        <time>2012-06-17T13:30:04Z</time>
      </trkpt>
      <trkpt lat="43.12963" lon="-0.67371">
        <ele>395.72</ele>
        <time>2012-06-17T13:30:16Z</time>
      </trkpt>
      <trkpt lat="43.12973" lon="-0.67367">
        <ele>395.24</ele>
        <time>2012-06-17T13:30:27Z</time>
      </trkpt>
      <trkpt lat="43.12983" lon="-0.67364">
        <ele>393.8</ele>
        <time>2012-06-17T13:30:38Z</time>
      </trkpt>
      <trkpt lat="43.12992" lon="-0.67361">
        <ele>392.84</ele>
        <time>2012-06-17T13:30:48Z</time>
      </trkpt>
      <trkpt lat="43.13001" lon="-0.67357">
        <ele>392.84</ele>
        <time>2012-06-17T13:30:58Z</time>
      </trkpt>
      <trkpt lat="43.13009" lon="-0.67351">
        <ele>391.39</ele>
        <time>2012-06-17T13:31:10Z</time>
      </trkpt>
      <trkpt lat="43.13018" lon="-0.67347">
        <ele>390.43</ele>
        <time>2012-06-17T13:31:21Z</time>
      </trkpt>
      <trkpt lat="43.13027" lon="-0.67341">
        <ele>388.03</ele>
        <time>2012-06-17T13:31:31Z</time>
      </trkpt>
      <trkpt lat="43.13034" lon="-0.67333">
        <ele>387.07</ele>
        <time>2012-06-17T13:31:41Z</time>
      </trkpt>
      <trkpt lat="43.13042" lon="-0.67331">
        <ele>384.66</ele>
        <time>2012-06-17T13:31:55Z</time>
      </trkpt>
      <trkpt lat="43.1305" lon="-0.67339">
        <ele>384.66</ele>
        <time>2012-06-17T13:32:06Z</time>
      </trkpt>
      <trkpt lat="43.13055" lon="-0.67351">
        <ele>382.26</ele>
        <time>2012-06-17T13:32:18Z</time>
      </trkpt>
      <trkpt lat="43.13061" lon="-0.67361">
        <ele>380.82</ele>
        <time>2012-06-17T13:32:28Z</time>
      </trkpt>
      <trkpt lat="43.13068" lon="-0.67372">
        <ele>379.86</ele>
        <time>2012-06-17T13:32:39Z</time>
      </trkpt>
      <trkpt lat="43.13075" lon="-0.67381">
        <ele>378.42</ele>
        <time>2012-06-17T13:32:49Z</time>
      </trkpt>
      <trkpt lat="43.13081" lon="-0.67392">
        <ele>376.97</ele>
        <time>2012-06-17T13:32:58Z</time>
      </trkpt>
      <trkpt lat="43.13087" lon="-0.67404">
        <ele>375.53</ele>
        <time>2012-06-17T13:33:08Z</time>
      </trkpt>
      <trkpt lat="43.13092" lon="-0.67414">
        <ele>375.05</ele>
        <time>2012-06-17T13:33:17Z</time>
      </trkpt>
      <trkpt lat="43.13099" lon="-0.67425">
        <ele>373.13</ele>
        <time>2012-06-17T13:33:27Z</time>
      </trkpt>
      <trkpt lat="43.13107" lon="-0.67435">
        <ele>371.69</ele>
        <time>2012-06-17T13:33:38Z</time>
      </trkpt>
      <trkpt lat="43.13115" lon="-0.67444">
        <ele>371.21</ele>
        <time>2012-06-17T13:33:48Z</time>
      </trkpt>
      <trkpt lat="43.13122" lon="-0.67453">
        <ele>369.28</ele>
        <time>2012-06-17T13:33:58Z</time>
      </trkpt>
      <trkpt lat="43.1313" lon="-0.67462">
        <ele>367.84</ele>
        <time>2012-06-17T13:34:08Z</time>
      </trkpt>
      <trkpt lat="43.13138" lon="-0.6747">
        <ele>366.88</ele>
        <time>2012-06-17T13:34:18Z</time>
      </trkpt>
      <trkpt lat="43.13146" lon="-0.67479">
        <ele>365.92</ele>
        <time>2012-06-17T13:34:28Z</time>
      </trkpt>
      <trkpt lat="43.13155" lon="-0.67488">
        <ele>364.96</ele>
        <time>2012-06-17T13:34:38Z</time>
      </trkpt>
      <trkpt lat="43.13164" lon="-0.67495">
        <ele>363.52</ele>
        <time>2012-06-17T13:34:48Z</time>
      </trkpt>
      <trkpt lat="43.13174" lon="-0.67498">
        <ele>362.07</ele>
        <time>2012-06-17T13:34:58Z</time>
      </trkpt>
      <trkpt lat="43.13184" lon="-0.675">
        <ele>361.11</ele>
        <time>2012-06-17T13:35:07Z</time>
      </trkpt>
      <trkpt lat="43.13194" lon="-0.67498">
        <ele>359.19</ele>
        <time>2012-06-17T13:35:17Z</time>
      </trkpt>
      <trkpt lat="43.13205" lon="-0.675">
        <ele>358.23</ele>
        <time>2012-06-17T13:35:27Z</time>
      </trkpt>
      <trkpt lat="43.13208" lon="-0.67513">
        <ele>356.79</ele>
        <time>2012-06-17T13:35:37Z</time>
      </trkpt>
      <trkpt lat="43.13206" lon="-0.67527">
        <ele>355.34</ele>
        <time>2012-06-17T13:35:48Z</time>
      </trkpt>
      <trkpt lat="43.13206" lon="-0.67544">
        <ele>353.9</ele>
        <time>2012-06-17T13:35:58Z</time>
      </trkpt>
      <trkpt lat="43.13205" lon="-0.67561">
        <ele>352.94</ele>
        <time>2012-06-17T13:36:08Z</time>
      </trkpt>
      <trkpt lat="43.13209" lon="-0.67575">
        <ele>351.5</ele>
        <time>2012-06-17T13:36:18Z</time>
      </trkpt>
      <trkpt lat="43.13215" lon="-0.67584">
        <ele>349.58</ele>
        <time>2012-06-17T13:36:28Z</time>
      </trkpt>
      <trkpt lat="43.13221" lon="-0.67595">
        <ele>348.62</ele>
        <time>2012-06-17T13:36:38Z</time>
      </trkpt>
      <trkpt lat="43.13227" lon="-0.67604">
        <ele>347.65</ele>
        <time>2012-06-17T13:36:47Z</time>
      </trkpt>
      <trkpt lat="43.13234" lon="-0.67616">
        <ele>346.21</ele>
        <time>2012-06-17T13:36:57Z</time>
      </trkpt>
      <trkpt lat="43.13238" lon="-0.6763">
        <ele>344.77</ele>
        <time>2012-06-17T13:37:07Z</time>
      </trkpt>
      <trkpt lat="43.13245" lon="-0.67643">
        <ele>342.85</ele>
        <time>2012-06-17T13:37:18Z</time>
      </trkpt>
      <trkpt lat="43.13251" lon="-0.67654">
        <ele>341.89</ele>
        <time>2012-06-17T13:37:27Z</time>
      </trkpt>
      <trkpt lat="43.13255" lon="-0.67669">
        <ele>340.92</ele>
        <time>2012-06-17T13:37:37Z</time>
      </trkpt>
      <trkpt lat="43.13262" lon="-0.67679">
        <ele>339</ele>
        <time>2012-06-17T13:37:47Z</time>
      </trkpt>
      <trkpt lat="43.13268" lon="-0.67692">
        <ele>337.08</ele>
        <time>2012-06-17T13:37:57Z</time>
      </trkpt>
      <trkpt lat="43.13273" lon="-0.67703">
        <ele>336.12</ele>
        <time>2012-06-17T13:38:07Z</time>
      </trkpt>
      <trkpt lat="43.1328" lon="-0.67715">
        <ele>334.68</ele>
        <time>2012-06-17T13:38:16Z</time>
      </trkpt>
      <trkpt lat="43.13286" lon="-0.67726">
        <ele>333.71</ele>
        <time>2012-06-17T13:38:25Z</time>
      </trkpt>
      <trkpt lat="43.13294" lon="-0.67735">
        <ele>332.27</ele>
        <time>2012-06-17T13:38:36Z</time>
      </trkpt>
      <trkpt lat="43.133" lon="-0.67748">
        <ele>331.31</ele>
        <time>2012-06-17T13:38:46Z</time>
      </trkpt>
      <trkpt lat="43.13306" lon="-0.67759">
        <ele>329.87</ele>
        <time>2012-06-17T13:38:56Z</time>
      </trkpt>
      <trkpt lat="43.13312" lon="-0.67769">
        <ele>328.91</ele>
        <time>2012-06-17T13:39:04Z</time>
      </trkpt>
      <trkpt lat="43.1332" lon="-0.67777">
        <ele>327.47</ele>
        <time>2012-06-17T13:39:12Z</time>
      </trkpt>
      <trkpt lat="43.13327" lon="-0.67786">
        <ele>326.5</ele>
        <time>2012-06-17T13:39:21Z</time>
      </trkpt>
      <trkpt lat="43.13334" lon="-0.67794">
        <ele>325.06</ele>
        <time>2012-06-17T13:39:31Z</time>
      </trkpt>
      <trkpt lat="43.1334" lon="-0.67804">
        <ele>324.1</ele>
        <time>2012-06-17T13:39:39Z</time>
      </trkpt>
      <trkpt lat="43.13346" lon="-0.67814">
        <ele>322.66</ele>
        <time>2012-06-17T13:39:48Z</time>
      </trkpt>
      <trkpt lat="43.13352" lon="-0.67826">
        <ele>321.7</ele>
        <time>2012-06-17T13:39:57Z</time>
      </trkpt>
      <trkpt lat="43.13358" lon="-0.67836">
        <ele>319.78</ele>
        <time>2012-06-17T13:40:06Z</time>
      </trkpt>
      <trkpt lat="43.13366" lon="-0.67844">
        <ele>318.81</ele>
        <time>2012-06-17T13:40:15Z</time>
      </trkpt>
      <trkpt lat="43.13374" lon="-0.67851">
        <ele>317.85</ele>
        <time>2012-06-17T13:40:24Z</time>
      </trkpt>
      <trkpt lat="43.13381" lon="-0.6786">
        <ele>316.41</ele>
        <time>2012-06-17T13:40:34Z</time>
      </trkpt>
      <trkpt lat="43.13387" lon="-0.67869">
        <ele>315.45</ele>
        <time>2012-06-17T13:40:42Z</time>
      </trkpt>
      <trkpt lat="43.13393" lon="-0.6788">
        <ele>314.49</ele>
        <time>2012-06-17T13:40:51Z</time>
      </trkpt>
      <trkpt lat="43.13397" lon="-0.6789">
        <ele>313.53</ele>
        <time>2012-06-17T13:41:00Z</time>
      </trkpt>
      <trkpt lat="43.13404" lon="-0.67899">
        <ele>312.57</ele>
        <time>2012-06-17T13:41:09Z</time>
      </trkpt>
      <trkpt lat="43.13411" lon="-0.67907">
        <ele>311.6</ele>
        <time>2012-06-17T13:41:18Z</time>
      </trkpt>
      <trkpt lat="43.13418" lon="-0.67916">
        <ele>310.64</ele>
        <time>2012-06-17T13:41:28Z</time>
      </trkpt>
      <trkpt lat="43.13424" lon="-0.67926">
        <ele>308.72</ele>
        <time>2012-06-17T13:41:35Z</time>
      </trkpt>
      <trkpt lat="43.13432" lon="-0.67936">
        <ele>307.28</ele>
        <time>2012-06-17T13:41:47Z</time>
      </trkpt>
      <trkpt lat="43.13438" lon="-0.67946">
        <ele>306.8</ele>
        <time>2012-06-17T13:41:55Z</time>
      </trkpt>
      <trkpt lat="43.13446" lon="-0.67953">
        <ele>304.88</ele>
        <time>2012-06-17T13:42:05Z</time>
      </trkpt>
      <trkpt lat="43.13454" lon="-0.67965">
        <ele>303.43</ele>
        <time>2012-06-17T13:42:16Z</time>
      </trkpt>
      <trkpt lat="43.1346" lon="-0.67976">
        <ele>302.95</ele>
        <time>2012-06-17T13:42:25Z</time>
      </trkpt>
      <trkpt lat="43.13464" lon="-0.67988">
        <ele>301.51</ele>
        <time>2012-06-17T13:42:32Z</time>
      </trkpt>
      <trkpt lat="43.13472" lon="-0.67996">
        <ele>300.55</ele>
        <time>2012-06-17T13:42:41Z</time>
      </trkpt>
      <trkpt lat="43.13478" lon="-0.68004">
        <ele>299.59</ele>
        <time>2012-06-17T13:42:50Z</time>
      </trkpt>
      <trkpt lat="43.13485" lon="-0.68012">
        <ele>298.15</ele>
        <time>2012-06-17T13:42:59Z</time>
      </trkpt>
      <trkpt lat="43.1349" lon="-0.68025">
        <ele>296.7</ele>
        <time>2012-06-17T13:43:07Z</time>
      </trkpt>
      <trkpt lat="43.13497" lon="-0.68033">
        <ele>296.22</ele>
        <time>2012-06-17T13:43:17Z</time>
      </trkpt>
      <trkpt lat="43.13503" lon="-0.68041">
        <ele>294.78</ele>
        <time>2012-06-17T13:43:26Z</time>
      </trkpt>
      <trkpt lat="43.13514" lon="-0.68048">
        <ele>293.82</ele>
        <time>2012-06-17T13:43:36Z</time>
      </trkpt>
      <trkpt lat="43.13521" lon="-0.68055">
        <ele>292.38</ele>
        <time>2012-06-17T13:43:44Z</time>
      </trkpt>
      <trkpt lat="43.1353" lon="-0.6806">
        <ele>291.42</ele>
        <time>2012-06-17T13:43:54Z</time>
      </trkpt>
      <trkpt lat="43.13533" lon="-0.68068">
        <ele>290.46</ele>
        <time>2012-06-17T13:44:14Z</time>
      </trkpt>
      <trkpt lat="43.13537" lon="-0.68064">
        <ele>289.49</ele>
        <time>2012-06-17T13:45:57Z</time>
      </trkpt>
      <trkpt lat="43.13544" lon="-0.68056">
        <ele>289.49</ele>
        <time>2012-06-17T13:46:10Z</time>
      </trkpt>
      <trkpt lat="43.13543" lon="-0.68068">
        <ele>289.49</ele>
        <time>2012-06-17T13:46:33Z</time>
      </trkpt>
      <trkpt lat="43.13543" lon="-0.6807">
        <ele>289.97</ele>
        <time>2012-06-17T13:48:52Z</time>
      </trkpt>
      <trkpt lat="43.13547" lon="-0.68065">
        <ele>290.46</ele>
        <time>2012-06-17T13:48:59Z</time>
      </trkpt>
      <trkpt lat="43.13554" lon="-0.68064">
        <ele>289.97</ele>
        <time>2012-06-17T13:49:09Z</time>
      </trkpt>
      <trkpt lat="43.13545" lon="-0.68063">
        <ele>289.97</ele>
        <time>2012-06-17T13:49:26Z</time>
      </trkpt>
      <trkpt lat="43.13537" lon="-0.68067">
        <ele>289.49</ele>
        <time>2012-06-17T13:49:51Z</time>
      </trkpt>
      <trkpt lat="43.13535" lon="-0.68064">
        <ele>289.97</ele>
        <time>2012-06-17T13:50:11Z</time>
      </trkpt>
      <trkpt lat="43.13531" lon="-0.68061">
        <ele>289.97</ele>
        <time>2012-06-17T13:50:59Z</time>
      </trkpt>
      <trkpt lat="43.1353" lon="-0.68066">
        <ele>289.49</ele>
        <time>2012-06-17T13:51:26Z</time>
      </trkpt>
      <trkpt lat="43.13537" lon="-0.68072">
        <ele>289.49</ele>
        <time>2012-06-17T13:51:38Z</time>
      </trkpt>
      <trkpt lat="43.13534" lon="-0.68081">
        <ele>289.49</ele>
        <time>2012-06-17T13:52:24Z</time>
      </trkpt>
      <trkpt lat="43.1354" lon="-0.68087">
        <ele>288.05</ele>
        <time>2012-06-17T13:53:52Z</time>
      </trkpt>
      <trkpt lat="43.13548" lon="-0.68092">
        <ele>287.57</ele>
        <time>2012-06-17T13:54:01Z</time>
      </trkpt>
      <trkpt lat="43.13558" lon="-0.68097">
        <ele>287.09</ele>
        <time>2012-06-17T13:54:10Z</time>
      </trkpt>
      <trkpt lat="43.13568" lon="-0.68101">
        <ele>286.61</ele>
        <time>2012-06-17T13:54:18Z</time>
      </trkpt>
      <trkpt lat="43.13577" lon="-0.68103">
        <ele>286.61</ele>
        <time>2012-06-17T13:54:26Z</time>
      </trkpt>
      <trkpt lat="43.13586" lon="-0.68108">
        <ele>286.61</ele>
        <time>2012-06-17T13:54:35Z</time>
      </trkpt>
      <trkpt lat="43.13595" lon="-0.68114">
        <ele>285.65</ele>
        <time>2012-06-17T13:54:44Z</time>
      </trkpt>
      <trkpt lat="43.13605" lon="-0.68116">
        <ele>285.65</ele>
        <time>2012-06-17T13:54:52Z</time>
      </trkpt>
      <trkpt lat="43.13615" lon="-0.68119">
        <ele>284.69</ele>
        <time>2012-06-17T13:55:01Z</time>
      </trkpt>
      <trkpt lat="43.13625" lon="-0.68119">
        <ele>284.21</ele>
        <time>2012-06-17T13:55:09Z</time>
      </trkpt>
      <trkpt lat="43.13636" lon="-0.68122">
        <ele>284.21</ele>
        <time>2012-06-17T13:55:19Z</time>
      </trkpt>
      <trkpt lat="43.13645" lon="-0.68126">
        <ele>284.69</ele>
        <time>2012-06-17T13:55:28Z</time>
      </trkpt>
      <trkpt lat="43.13655" lon="-0.68132">
        <ele>285.17</ele>
        <time>2012-06-17T13:55:37Z</time>
      </trkpt>
      <trkpt lat="43.13667" lon="-0.68134">
        <ele>285.17</ele>
        <time>2012-06-17T13:55:47Z</time>
      </trkpt>
      <trkpt lat="43.13675" lon="-0.68139">
        <ele>285.65</ele>
        <time>2012-06-17T13:55:55Z</time>
      </trkpt>
      <trkpt lat="43.13683" lon="-0.68143">
        <ele>285.65</ele>
        <time>2012-06-17T13:56:03Z</time>
      </trkpt>
      <trkpt lat="43.13692" lon="-0.68149">
        <ele>285.17</ele>
        <time>2012-06-17T13:56:12Z</time>
      </trkpt>
      <trkpt lat="43.137" lon="-0.68154">
        <ele>285.17</ele>
        <time>2012-06-17T13:56:19Z</time>
      </trkpt>
      <trkpt lat="43.13708" lon="-0.68161">
        <ele>285.17</ele>
        <time>2012-06-17T13:56:28Z</time>
      </trkpt>
      <trkpt lat="43.13718" lon="-0.68167">
        <ele>285.17</ele>
        <time>2012-06-17T13:56:37Z</time>
      </trkpt>
      <trkpt lat="43.13727" lon="-0.68175">
        <ele>284.69</ele>
        <time>2012-06-17T13:56:48Z</time>
      </trkpt>
      <trkpt lat="43.13739" lon="-0.68181">
        <ele>284.69</ele>
        <time>2012-06-17T13:56:58Z</time>
      </trkpt>
      <trkpt lat="43.13747" lon="-0.68188">
        <ele>284.69</ele>
        <time>2012-06-17T13:57:05Z</time>
      </trkpt>
      <trkpt lat="43.13754" lon="-0.68194">
        <ele>283.25</ele>
        <time>2012-06-17T13:57:14Z</time>
      </trkpt>
      <trkpt lat="43.13761" lon="-0.68203">
        <ele>282.28</ele>
        <time>2012-06-17T13:57:23Z</time>
      </trkpt>
      <trkpt lat="43.13768" lon="-0.68212">
        <ele>280.36</ele>
        <time>2012-06-17T13:57:32Z</time>
      </trkpt>
      <trkpt lat="43.13776" lon="-0.68219">
        <ele>278.92</ele>
        <time>2012-06-17T13:57:40Z</time>
      </trkpt>
      <trkpt lat="43.13784" lon="-0.68224">
        <ele>277.48</ele>
        <time>2012-06-17T13:57:49Z</time>
      </trkpt>
      <trkpt lat="43.13792" lon="-0.68231">
        <ele>275.56</ele>
        <time>2012-06-17T13:58:02Z</time>
      </trkpt>
      <trkpt lat="43.138" lon="-0.68238">
        <ele>274.59</ele>
        <time>2012-06-17T13:58:08Z</time>
      </trkpt>
      <trkpt lat="43.13808" lon="-0.68246">
        <ele>274.11</ele>
        <time>2012-06-17T13:58:14Z</time>
      </trkpt>
      <trkpt lat="43.13818" lon="-0.68251">
        <ele>273.63</ele>
        <time>2012-06-17T13:58:22Z</time>
      </trkpt>
      <trkpt lat="43.13827" lon="-0.68257">
        <ele>273.63</ele>
        <time>2012-06-17T13:58:30Z</time>
      </trkpt>
      <trkpt lat="43.13835" lon="-0.68263">
        <ele>272.67</ele>
        <time>2012-06-17T13:58:37Z</time>
      </trkpt>
      <trkpt lat="43.13849" lon="-0.68268">
        <ele>271.23</ele>
        <time>2012-06-17T13:58:47Z</time>
      </trkpt>
      <trkpt lat="43.13863" lon="-0.68273">
        <ele>270.75</ele>
        <time>2012-06-17T13:58:58Z</time>
      </trkpt>
      <trkpt lat="43.13872" lon="-0.68277">
        <ele>270.27</ele>
        <time>2012-06-17T13:59:07Z</time>
      </trkpt>
      <trkpt lat="43.13881" lon="-0.68283">
        <ele>270.27</ele>
        <time>2012-06-17T13:59:17Z</time>
      </trkpt>
      <trkpt lat="43.13888" lon="-0.68289">
        <ele>269.79</ele>
        <time>2012-06-17T13:59:32Z</time>
      </trkpt>
      <trkpt lat="43.13897" lon="-0.68291">
        <ele>269.79</ele>
        <time>2012-06-17T13:59:43Z</time>
      </trkpt>
      <trkpt lat="43.13908" lon="-0.68293">
        <ele>270.75</ele>
        <time>2012-06-17T13:59:53Z</time>
      </trkpt>
      <trkpt lat="43.13918" lon="-0.68298">
        <ele>271.23</ele>
        <time>2012-06-17T14:00:01Z</time>
      </trkpt>
      <trkpt lat="43.13928" lon="-0.68303">
        <ele>271.23</ele>
        <time>2012-06-17T14:00:09Z</time>
      </trkpt>
      <trkpt lat="43.13939" lon="-0.68305">
        <ele>272.19</ele>
        <time>2012-06-17T14:00:19Z</time>
      </trkpt>
      <trkpt lat="43.13948" lon="-0.68307">
        <ele>273.63</ele>
        <time>2012-06-17T14:00:32Z</time>
      </trkpt>
      <trkpt lat="43.13959" lon="-0.68312">
        <ele>274.59</ele>
        <time>2012-06-17T14:00:41Z</time>
      </trkpt>
      <trkpt lat="43.13971" lon="-0.68318">
        <ele>275.56</ele>
        <time>2012-06-17T14:00:51Z</time>
      </trkpt>
      <trkpt lat="43.13978" lon="-0.68325">
        <ele>276.52</ele>
        <time>2012-06-17T14:01:01Z</time>
      </trkpt>
      <trkpt lat="43.13986" lon="-0.68336">
        <ele>277</ele>
        <time>2012-06-17T14:01:12Z</time>
      </trkpt>
      <trkpt lat="43.13995" lon="-0.68343">
        <ele>277</ele>
        <time>2012-06-17T14:01:23Z</time>
      </trkpt>
      <trkpt lat="43.14" lon="-0.68352">
        <ele>277.48</ele>
        <time>2012-06-17T14:01:31Z</time>
      </trkpt>
      <trkpt lat="43.14016" lon="-0.68371">
        <ele>277.48</ele>
        <time>2012-06-17T14:01:41Z</time>
      </trkpt>
      <trkpt lat="43.14021" lon="-0.68382">
        <ele>278.44</ele>
        <time>2012-06-17T14:01:51Z</time>
      </trkpt>
      <trkpt lat="43.14028" lon="-0.68389">
        <ele>278.92</ele>
        <time>2012-06-17T14:02:02Z</time>
      </trkpt>
      <trkpt lat="43.14039" lon="-0.68398">
        <ele>278.92</ele>
        <time>2012-06-17T14:02:15Z</time>
      </trkpt>
      <trkpt lat="43.14046" lon="-0.68407">
        <ele>278.44</ele>
        <time>2012-06-17T14:02:24Z</time>
      </trkpt>
      <trkpt lat="43.14049" lon="-0.68423">
        <ele>278.92</ele>
        <time>2012-06-17T14:02:32Z</time>
      </trkpt>
      <trkpt lat="43.14057" lon="-0.68436">
        <ele>279.4</ele>
        <time>2012-06-17T14:02:41Z</time>
      </trkpt>
      <trkpt lat="43.14064" lon="-0.68441">
        <ele>279.88</ele>
        <time>2012-06-17T14:02:48Z</time>
      </trkpt>
      <trkpt lat="43.14071" lon="-0.6845">
        <ele>279.4</ele>
        <time>2012-06-17T14:02:57Z</time>
      </trkpt>
      <trkpt lat="43.14077" lon="-0.68461">
        <ele>279.88</ele>
        <time>2012-06-17T14:03:05Z</time>
      </trkpt>
      <trkpt lat="43.14083" lon="-0.6847">
        <ele>279.4</ele>
        <time>2012-06-17T14:03:12Z</time>
      </trkpt>
      <trkpt lat="43.1409" lon="-0.68479">
        <ele>278.92</ele>
        <time>2012-06-17T14:03:22Z</time>
      </trkpt>
      <trkpt lat="43.14098" lon="-0.68484">
        <ele>278.44</ele>
        <time>2012-06-17T14:04:05Z</time>
      </trkpt>
      <trkpt lat="43.1411" lon="-0.68487">
        <ele>277.96</ele>
        <time>2012-06-17T14:04:14Z</time>
      </trkpt>
      <trkpt lat="43.14119" lon="-0.6849">
        <ele>277</ele>
        <time>2012-06-17T14:04:21Z</time>
      </trkpt>
      <trkpt lat="43.14128" lon="-0.68493">
        <ele>276.04</ele>
        <time>2012-06-17T14:04:29Z</time>
      </trkpt>
      <trkpt lat="43.14136" lon="-0.68497">
        <ele>275.56</ele>
        <time>2012-06-17T14:04:42Z</time>
      </trkpt>
      <trkpt lat="43.14146" lon="-0.68501">
        <ele>274.59</ele>
        <time>2012-06-17T14:04:51Z</time>
      </trkpt>
      <trkpt lat="43.14156" lon="-0.68505">
        <ele>273.15</ele>
        <time>2012-06-17T14:05:01Z</time>
      </trkpt>
      <trkpt lat="43.14168" lon="-0.68505">
        <ele>272.67</ele>
        <time>2012-06-17T14:05:10Z</time>
      </trkpt>
      <trkpt lat="43.14177" lon="-0.68503">
        <ele>272.19</ele>
        <time>2012-06-17T14:05:19Z</time>
      </trkpt>
      <trkpt lat="43.1419" lon="-0.685">
        <ele>271.23</ele>
        <time>2012-06-17T14:05:28Z</time>
      </trkpt>
      <trkpt lat="43.14204" lon="-0.68495">
        <ele>270.27</ele>
        <time>2012-06-17T14:05:41Z</time>
      </trkpt>
      <trkpt lat="43.14215" lon="-0.6849">
        <ele>269.31</ele>
        <time>2012-06-17T14:05:51Z</time>
      </trkpt>
      <trkpt lat="43.14228" lon="-0.68484">
        <ele>268.35</ele>
        <time>2012-06-17T14:05:59Z</time>
      </trkpt>
      <trkpt lat="43.1424" lon="-0.68481">
        <ele>266.9</ele>
        <time>2012-06-17T14:06:10Z</time>
      </trkpt>
      <trkpt lat="43.1425" lon="-0.68478">
        <ele>265.46</ele>
        <time>2012-06-17T14:06:21Z</time>
      </trkpt>
      <trkpt lat="43.14264" lon="-0.68478">
        <ele>262.1</ele>
        <time>2012-06-17T14:06:47Z</time>
      </trkpt>
      <trkpt lat="43.14286" lon="-0.6849">
        <ele>259.21</ele>
        <time>2012-06-17T14:07:10Z</time>
      </trkpt>
      <trkpt lat="43.14307" lon="-0.68494">
        <ele>258.25</ele>
        <time>2012-06-17T14:07:20Z</time>
      </trkpt>
      <trkpt lat="43.14318" lon="-0.68497">
        <ele>257.29</ele>
        <time>2012-06-17T14:07:28Z</time>
      </trkpt>
      <trkpt lat="43.14332" lon="-0.68502">
        <ele>255.37</ele>
        <time>2012-06-17T14:07:40Z</time>
      </trkpt>
      <trkpt lat="43.14341" lon="-0.68506">
        <ele>254.41</ele>
        <time>2012-06-17T14:07:50Z</time>
      </trkpt>
      <trkpt lat="43.14392" lon="-0.68512">
        <ele>251.04</ele>
        <time>2012-06-17T14:08:35Z</time>
      </trkpt>
      <trkpt lat="43.14403" lon="-0.68517">
        <ele>251.04</ele>
        <time>2012-06-17T14:08:42Z</time>
      </trkpt>
      <trkpt lat="43.14417" lon="-0.6852">
        <ele>250.56</ele>
        <time>2012-06-17T14:08:51Z</time>
      </trkpt>
      <trkpt lat="43.14427" lon="-0.68525">
        <ele>249.12</ele>
        <time>2012-06-17T14:09:00Z</time>
      </trkpt>
      <trkpt lat="43.14437" lon="-0.6853">
        <ele>249.12</ele>
        <time>2012-06-17T14:09:08Z</time>
      </trkpt>
      <trkpt lat="43.14444" lon="-0.68538">
        <ele>248.64</ele>
        <time>2012-06-17T14:09:19Z</time>
      </trkpt>
      <trkpt lat="43.14452" lon="-0.68544">
        <ele>248.64</ele>
        <time>2012-06-17T14:09:28Z</time>
      </trkpt>
      <trkpt lat="43.14463" lon="-0.68549">
        <ele>248.16</ele>
        <time>2012-06-17T14:09:36Z</time>
      </trkpt>
      <trkpt lat="43.14471" lon="-0.68551">
        <ele>247.68</ele>
        <time>2012-06-17T14:09:45Z</time>
      </trkpt>
      <trkpt lat="43.14481" lon="-0.68554">
        <ele>248.16</ele>
        <time>2012-06-17T14:09:54Z</time>
      </trkpt>
      <trkpt lat="43.14491" lon="-0.68556">
        <ele>248.16</ele>
        <time>2012-06-17T14:10:03Z</time>
      </trkpt>
      <trkpt lat="43.14502" lon="-0.6856">
        <ele>247.2</ele>
        <time>2012-06-17T14:10:12Z</time>
      </trkpt>
      <trkpt lat="43.14512" lon="-0.68566">
        <ele>247.2</ele>
        <time>2012-06-17T14:10:21Z</time>
      </trkpt>
      <trkpt lat="43.14521" lon="-0.68575">
        <ele>246.72</ele>
        <time>2012-06-17T14:10:30Z</time>
      </trkpt>
      <trkpt lat="43.1453" lon="-0.68585">
        <ele>246.23</ele>
        <time>2012-06-17T14:10:39Z</time>
      </trkpt>
      <trkpt lat="43.14538" lon="-0.68597">
        <ele>245.27</ele>
        <time>2012-06-17T14:10:48Z</time>
      </trkpt>
      <trkpt lat="43.14543" lon="-0.68613">
        <ele>244.79</ele>
        <time>2012-06-17T14:10:57Z</time>
      </trkpt>
      <trkpt lat="43.14544" lon="-0.68629">
        <ele>244.31</ele>
        <time>2012-06-17T14:11:07Z</time>
      </trkpt>
      <trkpt lat="43.14541" lon="-0.68642">
        <ele>244.79</ele>
        <time>2012-06-17T14:11:16Z</time>
      </trkpt>
      <trkpt lat="43.14536" lon="-0.68657">
        <ele>244.79</ele>
        <time>2012-06-17T14:11:25Z</time>
      </trkpt>
      <trkpt lat="43.14533" lon="-0.68671">
        <ele>245.75</ele>
        <time>2012-06-17T14:11:35Z</time>
      </trkpt>
      <trkpt lat="43.14534" lon="-0.68683">
        <ele>246.23</ele>
        <time>2012-06-17T14:11:44Z</time>
      </trkpt>
      <trkpt lat="43.14533" lon="-0.68698">
        <ele>245.75</ele>
        <time>2012-06-17T14:11:54Z</time>
      </trkpt>
      <trkpt lat="43.14531" lon="-0.68712">
        <ele>245.27</ele>
        <time>2012-06-17T14:12:04Z</time>
      </trkpt>
      <trkpt lat="43.14531" lon="-0.68723">
        <ele>245.27</ele>
        <time>2012-06-17T14:12:15Z</time>
      </trkpt>
      <trkpt lat="43.14532" lon="-0.68737">
        <ele>244.79</ele>
        <time>2012-06-17T14:12:23Z</time>
      </trkpt>
      <trkpt lat="43.14534" lon="-0.68749">
        <ele>244.31</ele>
        <time>2012-06-17T14:12:33Z</time>
      </trkpt>
      <trkpt lat="43.14534" lon="-0.68765">
        <ele>244.31</ele>
        <time>2012-06-17T14:12:41Z</time>
      </trkpt>
      <trkpt lat="43.14537" lon="-0.68779">
        <ele>244.79</ele>
        <time>2012-06-17T14:12:51Z</time>
      </trkpt>
      <trkpt lat="43.14539" lon="-0.68792">
        <ele>244.79</ele>
        <time>2012-06-17T14:12:59Z</time>
      </trkpt>
      <trkpt lat="43.14542" lon="-0.68806">
        <ele>244.79</ele>
        <time>2012-06-17T14:13:08Z</time>
      </trkpt>
      <trkpt lat="43.14542" lon="-0.68817">
        <ele>244.31</ele>
        <time>2012-06-17T14:13:15Z</time>
      </trkpt>
      <trkpt lat="43.14542" lon="-0.68831">
        <ele>244.79</ele>
        <time>2012-06-17T14:13:24Z</time>
      </trkpt>
      <trkpt lat="43.14543" lon="-0.68844">
        <ele>244.79</ele>
        <time>2012-06-17T14:13:32Z</time>
      </trkpt>
      <trkpt lat="43.14542" lon="-0.68858">
        <ele>244.31</ele>
        <time>2012-06-17T14:13:41Z</time>
      </trkpt>
      <trkpt lat="43.14544" lon="-0.68873">
        <ele>245.27</ele>
        <time>2012-06-17T14:13:50Z</time>
      </trkpt>
      <trkpt lat="43.14542" lon="-0.68891">
        <ele>244.79</ele>
        <time>2012-06-17T14:14:00Z</time>
      </trkpt>
      <trkpt lat="43.14537" lon="-0.68908">
        <ele>244.79</ele>
        <time>2012-06-17T14:14:09Z</time>
      </trkpt>
      <trkpt lat="43.14536" lon="-0.68923">
        <ele>244.79</ele>
        <time>2012-06-17T14:14:18Z</time>
      </trkpt>
      <trkpt lat="43.14536" lon="-0.68938">
        <ele>244.79</ele>
        <time>2012-06-17T14:14:27Z</time>
      </trkpt>
      <trkpt lat="43.14534" lon="-0.68952">
        <ele>245.27</ele>
        <time>2012-06-17T14:14:35Z</time>
      </trkpt>
      <trkpt lat="43.14534" lon="-0.68965">
        <ele>245.27</ele>
        <time>2012-06-17T14:14:43Z</time>
      </trkpt>
      <trkpt lat="43.14533" lon="-0.68976">
        <ele>244.79</ele>
        <time>2012-06-17T14:14:51Z</time>
      </trkpt>
      <trkpt lat="43.14533" lon="-0.68988">
        <ele>245.27</ele>
        <time>2012-06-17T14:15:00Z</time>
      </trkpt>
      <trkpt lat="43.14535" lon="-0.69003">
        <ele>245.27</ele>
        <time>2012-06-17T14:15:09Z</time>
      </trkpt>
      <trkpt lat="43.14539" lon="-0.69018">
        <ele>246.72</ele>
        <time>2012-06-17T14:15:19Z</time>
      </trkpt>
      <trkpt lat="43.14543" lon="-0.69033">
        <ele>247.2</ele>
        <time>2012-06-17T14:15:30Z</time>
      </trkpt>
      <trkpt lat="43.14546" lon="-0.69048">
        <ele>248.16</ele>
        <time>2012-06-17T14:15:39Z</time>
      </trkpt>
      <trkpt lat="43.14546" lon="-0.69064">
        <ele>248.64</ele>
        <time>2012-06-17T14:15:48Z</time>
      </trkpt>
      <trkpt lat="43.14546" lon="-0.69079">
        <ele>249.12</ele>
        <time>2012-06-17T14:15:58Z</time>
      </trkpt>
      <trkpt lat="43.14538" lon="-0.69086">
        <ele>249.6</ele>
        <time>2012-06-17T14:16:07Z</time>
      </trkpt>
      <trkpt lat="43.14527" lon="-0.69088">
        <ele>249.6</ele>
        <time>2012-06-17T14:16:16Z</time>
      </trkpt>
      <trkpt lat="43.14516" lon="-0.69088">
        <ele>249.6</ele>
        <time>2012-06-17T14:16:24Z</time>
      </trkpt>
      <trkpt lat="43.14506" lon="-0.69091">
        <ele>250.08</ele>
        <time>2012-06-17T14:16:31Z</time>
      </trkpt>
      <trkpt lat="43.14497" lon="-0.69096">
        <ele>250.08</ele>
        <time>2012-06-17T14:16:40Z</time>
      </trkpt>
      <trkpt lat="43.14486" lon="-0.69098">
        <ele>250.08</ele>
        <time>2012-06-17T14:16:48Z</time>
      </trkpt>
      <trkpt lat="43.14479" lon="-0.69109">
        <ele>250.08</ele>
        <time>2012-06-17T14:16:56Z</time>
      </trkpt>
      <trkpt lat="43.14472" lon="-0.69118">
        <ele>250.08</ele>
        <time>2012-06-17T14:17:05Z</time>
      </trkpt>
      <trkpt lat="43.14464" lon="-0.69124">
        <ele>249.6</ele>
        <time>2012-06-17T14:17:14Z</time>
      </trkpt>
      <trkpt lat="43.14461" lon="-0.69131">
        <ele>249.6</ele>
        <time>2012-06-17T14:20:14Z</time>
      </trkpt>
      <trkpt lat="43.14461" lon="-0.69132">
        <ele>248.64</ele>
        <time>2012-06-17T14:21:26Z</time>
      </trkpt>
    </trkseg>
  </trk>
</gpx>